<?xml version="1.0" encoding="UTF-8" standalone="no" ?>
<gpx xmlns="http://www.topografix.com/GPX/1/1" xmlns:xsi="http://www.w3.org/2001/XMLSchema-instance" xsi:schemaLocation="http://www.topografix.com/GPX/1/1 http://www.topografix.com/GPX/1/1/gpx.xsd" version="1.1" creator="VisuGPX - https://www.visugpx.com">
  <metadata>
    <name>ÉTANGS DE BASSIES au départ de MASSADA</name>
    <desc><![CDATA[Une classique dont on ne se lasse pas et sans difficulté technique.]]></desc>
  </metadata>
  <trk>
    <name><![CDATA[20190112192655-TSiJM]]></name>
    <trkseg>
      <trkpt lat="42.74318" lon="1.46372">
        <ele>844.66</ele>
        <time>2019-01-12T08:27:38Z</time>
      </trkpt>
      <trkpt lat="42.74319" lon="1.46372">
        <ele>845.14</ele>
        <time>2019-01-12T08:27:59Z</time>
      </trkpt>
      <trkpt lat="42.74319" lon="1.46363">
        <ele>845.62</ele>
        <time>2019-01-12T08:29:12Z</time>
      </trkpt>
      <trkpt lat="42.74318" lon="1.46352">
        <ele>845.62</ele>
        <time>2019-01-12T08:29:30Z</time>
      </trkpt>
      <trkpt lat="42.74317" lon="1.46339">
        <ele>844.66</ele>
        <time>2019-01-12T08:29:45Z</time>
      </trkpt>
      <trkpt lat="42.74314" lon="1.46328">
        <ele>844.66</ele>
        <time>2019-01-12T08:29:56Z</time>
      </trkpt>
      <trkpt lat="42.74308" lon="1.46321">
        <ele>844.18</ele>
        <time>2019-01-12T08:30:09Z</time>
      </trkpt>
      <trkpt lat="42.74302" lon="1.46312">
        <ele>843.21</ele>
        <time>2019-01-12T08:30:22Z</time>
      </trkpt>
      <trkpt lat="42.74306" lon="1.46319">
        <ele>843.69</ele>
        <time>2019-01-12T08:30:40Z</time>
      </trkpt>
      <trkpt lat="42.74307" lon="1.46316">
        <ele>843.69</ele>
        <time>2019-01-12T08:31:02Z</time>
      </trkpt>
      <trkpt lat="42.74299" lon="1.46307">
        <ele>842.73</ele>
        <time>2019-01-12T08:31:10Z</time>
      </trkpt>
      <trkpt lat="42.74299" lon="1.46293">
        <ele>842.25</ele>
        <time>2019-01-12T08:31:18Z</time>
      </trkpt>
      <trkpt lat="42.74297" lon="1.46279">
        <ele>841.77</ele>
        <time>2019-01-12T08:31:27Z</time>
      </trkpt>
      <trkpt lat="42.7429" lon="1.46273">
        <ele>842.25</ele>
        <time>2019-01-12T08:33:08Z</time>
      </trkpt>
      <trkpt lat="42.74282" lon="1.46263">
        <ele>839.85</ele>
        <time>2019-01-12T08:33:18Z</time>
      </trkpt>
      <trkpt lat="42.74274" lon="1.46255">
        <ele>837.45</ele>
        <time>2019-01-12T08:33:27Z</time>
      </trkpt>
      <trkpt lat="42.74277" lon="1.46241">
        <ele>837.93</ele>
        <time>2019-01-12T08:33:38Z</time>
      </trkpt>
      <trkpt lat="42.74283" lon="1.4623">
        <ele>836</ele>
        <time>2019-01-12T08:33:46Z</time>
      </trkpt>
      <trkpt lat="42.74291" lon="1.46222">
        <ele>836.96</ele>
        <time>2019-01-12T08:34:03Z</time>
      </trkpt>
      <trkpt lat="42.74284" lon="1.46219">
        <ele>840.33</ele>
        <time>2019-01-12T08:34:22Z</time>
      </trkpt>
      <trkpt lat="42.74275" lon="1.46216">
        <ele>841.77</ele>
        <time>2019-01-12T08:34:35Z</time>
      </trkpt>
      <trkpt lat="42.74267" lon="1.46217">
        <ele>842.73</ele>
        <time>2019-01-12T08:34:44Z</time>
      </trkpt>
      <trkpt lat="42.74258" lon="1.46213">
        <ele>844.66</ele>
        <time>2019-01-12T08:34:57Z</time>
      </trkpt>
      <trkpt lat="42.74249" lon="1.46212">
        <ele>846.58</ele>
        <time>2019-01-12T08:35:11Z</time>
      </trkpt>
      <trkpt lat="42.74241" lon="1.46208">
        <ele>848.5</ele>
        <time>2019-01-12T08:35:24Z</time>
      </trkpt>
      <trkpt lat="42.74232" lon="1.46204">
        <ele>850.42</ele>
        <time>2019-01-12T08:35:40Z</time>
      </trkpt>
      <trkpt lat="42.74224" lon="1.46201">
        <ele>851.87</ele>
        <time>2019-01-12T08:35:54Z</time>
      </trkpt>
      <trkpt lat="42.74216" lon="1.46195">
        <ele>853.79</ele>
        <time>2019-01-12T08:36:08Z</time>
      </trkpt>
      <trkpt lat="42.74208" lon="1.46186">
        <ele>856.19</ele>
        <time>2019-01-12T08:36:26Z</time>
      </trkpt>
      <trkpt lat="42.74198" lon="1.46181">
        <ele>857.63</ele>
        <time>2019-01-12T08:36:38Z</time>
      </trkpt>
      <trkpt lat="42.7419" lon="1.46178">
        <ele>859.56</ele>
        <time>2019-01-12T08:36:51Z</time>
      </trkpt>
      <trkpt lat="42.74185" lon="1.46173">
        <ele>862.92</ele>
        <time>2019-01-12T08:37:12Z</time>
      </trkpt>
      <trkpt lat="42.74176" lon="1.46174">
        <ele>864.84</ele>
        <time>2019-01-12T08:37:23Z</time>
      </trkpt>
      <trkpt lat="42.74171" lon="1.46171">
        <ele>867.73</ele>
        <time>2019-01-12T08:37:43Z</time>
      </trkpt>
      <trkpt lat="42.74164" lon="1.46163">
        <ele>871.57</ele>
        <time>2019-01-12T08:38:02Z</time>
      </trkpt>
      <trkpt lat="42.74163" lon="1.46148">
        <ele>873.01</ele>
        <time>2019-01-12T08:38:15Z</time>
      </trkpt>
      <trkpt lat="42.74164" lon="1.46134">
        <ele>872.53</ele>
        <time>2019-01-12T08:38:26Z</time>
      </trkpt>
      <trkpt lat="42.74157" lon="1.46123">
        <ele>872.05</ele>
        <time>2019-01-12T08:38:39Z</time>
      </trkpt>
      <trkpt lat="42.74151" lon="1.46117">
        <ele>871.57</ele>
        <time>2019-01-12T08:38:48Z</time>
      </trkpt>
      <trkpt lat="42.74143" lon="1.46108">
        <ele>870.61</ele>
        <time>2019-01-12T08:38:57Z</time>
      </trkpt>
      <trkpt lat="42.74134" lon="1.46103">
        <ele>870.61</ele>
        <time>2019-01-12T08:39:05Z</time>
      </trkpt>
      <trkpt lat="42.74126" lon="1.46097">
        <ele>870.61</ele>
        <time>2019-01-12T08:39:13Z</time>
      </trkpt>
      <trkpt lat="42.7412" lon="1.46087">
        <ele>871.09</ele>
        <time>2019-01-12T08:39:22Z</time>
      </trkpt>
      <trkpt lat="42.74112" lon="1.46081">
        <ele>871.09</ele>
        <time>2019-01-12T08:39:31Z</time>
      </trkpt>
      <trkpt lat="42.74103" lon="1.46073">
        <ele>872.05</ele>
        <time>2019-01-12T08:39:40Z</time>
      </trkpt>
      <trkpt lat="42.74093" lon="1.46071">
        <ele>873.01</ele>
        <time>2019-01-12T08:39:49Z</time>
      </trkpt>
      <trkpt lat="42.74086" lon="1.46068">
        <ele>874.46</ele>
        <time>2019-01-12T08:39:59Z</time>
      </trkpt>
      <trkpt lat="42.74079" lon="1.46061">
        <ele>876.38</ele>
        <time>2019-01-12T08:40:10Z</time>
      </trkpt>
      <trkpt lat="42.74072" lon="1.46057">
        <ele>877.82</ele>
        <time>2019-01-12T08:40:22Z</time>
      </trkpt>
      <trkpt lat="42.74065" lon="1.46054">
        <ele>880.22</ele>
        <time>2019-01-12T08:40:34Z</time>
      </trkpt>
      <trkpt lat="42.74059" lon="1.46048">
        <ele>883.11</ele>
        <time>2019-01-12T08:40:44Z</time>
      </trkpt>
      <trkpt lat="42.74056" lon="1.4604">
        <ele>885.03</ele>
        <time>2019-01-12T08:40:57Z</time>
      </trkpt>
      <trkpt lat="42.74053" lon="1.46033">
        <ele>887.91</ele>
        <time>2019-01-12T08:41:16Z</time>
      </trkpt>
      <trkpt lat="42.74042" lon="1.46032">
        <ele>889.84</ele>
        <time>2019-01-12T08:41:26Z</time>
      </trkpt>
      <trkpt lat="42.74035" lon="1.4603">
        <ele>891.28</ele>
        <time>2019-01-12T08:41:35Z</time>
      </trkpt>
      <trkpt lat="42.74028" lon="1.46024">
        <ele>891.76</ele>
        <time>2019-01-12T08:41:45Z</time>
      </trkpt>
      <trkpt lat="42.74024" lon="1.46019">
        <ele>893.68</ele>
        <time>2019-01-12T08:41:56Z</time>
      </trkpt>
      <trkpt lat="42.74021" lon="1.46011">
        <ele>895.12</ele>
        <time>2019-01-12T08:42:08Z</time>
      </trkpt>
      <trkpt lat="42.74019" lon="1.46003">
        <ele>897.05</ele>
        <time>2019-01-12T08:42:24Z</time>
      </trkpt>
      <trkpt lat="42.7401" lon="1.45999">
        <ele>898.97</ele>
        <time>2019-01-12T08:42:34Z</time>
      </trkpt>
      <trkpt lat="42.74004" lon="1.45993">
        <ele>900.41</ele>
        <time>2019-01-12T08:42:46Z</time>
      </trkpt>
      <trkpt lat="42.73997" lon="1.45986">
        <ele>902.33</ele>
        <time>2019-01-12T08:42:59Z</time>
      </trkpt>
      <trkpt lat="42.73991" lon="1.45981">
        <ele>902.82</ele>
        <time>2019-01-12T08:43:11Z</time>
      </trkpt>
      <trkpt lat="42.73986" lon="1.4597">
        <ele>903.3</ele>
        <time>2019-01-12T08:43:27Z</time>
      </trkpt>
      <trkpt lat="42.73977" lon="1.4597">
        <ele>903.78</ele>
        <time>2019-01-12T08:43:36Z</time>
      </trkpt>
      <trkpt lat="42.73969" lon="1.45973">
        <ele>904.26</ele>
        <time>2019-01-12T08:43:48Z</time>
      </trkpt>
      <trkpt lat="42.7396" lon="1.45968">
        <ele>905.22</ele>
        <time>2019-01-12T08:44:01Z</time>
      </trkpt>
      <trkpt lat="42.73951" lon="1.45964">
        <ele>905.7</ele>
        <time>2019-01-12T08:44:13Z</time>
      </trkpt>
      <trkpt lat="42.73941" lon="1.45963">
        <ele>908.58</ele>
        <time>2019-01-12T08:44:33Z</time>
      </trkpt>
      <trkpt lat="42.73932" lon="1.45958">
        <ele>910.51</ele>
        <time>2019-01-12T08:44:46Z</time>
      </trkpt>
      <trkpt lat="42.73921" lon="1.45956">
        <ele>912.43</ele>
        <time>2019-01-12T08:45:03Z</time>
      </trkpt>
      <trkpt lat="42.73915" lon="1.4595">
        <ele>913.39</ele>
        <time>2019-01-12T08:45:16Z</time>
      </trkpt>
      <trkpt lat="42.73908" lon="1.45938">
        <ele>916.75</ele>
        <time>2019-01-12T08:45:37Z</time>
      </trkpt>
      <trkpt lat="42.73898" lon="1.45934">
        <ele>920.12</ele>
        <time>2019-01-12T08:45:56Z</time>
      </trkpt>
      <trkpt lat="42.73887" lon="1.45933">
        <ele>921.56</ele>
        <time>2019-01-12T08:46:12Z</time>
      </trkpt>
      <trkpt lat="42.7388" lon="1.45926">
        <ele>923.96</ele>
        <time>2019-01-12T08:46:28Z</time>
      </trkpt>
      <trkpt lat="42.73877" lon="1.45913">
        <ele>926.37</ele>
        <time>2019-01-12T08:46:45Z</time>
      </trkpt>
      <trkpt lat="42.7387" lon="1.45905">
        <ele>928.29</ele>
        <time>2019-01-12T08:47:01Z</time>
      </trkpt>
      <trkpt lat="42.73866" lon="1.45897">
        <ele>932.14</ele>
        <time>2019-01-12T08:47:26Z</time>
      </trkpt>
      <trkpt lat="42.7386" lon="1.45888">
        <ele>935.5</ele>
        <time>2019-01-12T08:47:43Z</time>
      </trkpt>
      <trkpt lat="42.73853" lon="1.45881">
        <ele>936.46</ele>
        <time>2019-01-12T08:47:55Z</time>
      </trkpt>
      <trkpt lat="42.73845" lon="1.45874">
        <ele>937.42</ele>
        <time>2019-01-12T08:48:06Z</time>
      </trkpt>
      <trkpt lat="42.73838" lon="1.45871">
        <ele>938.86</ele>
        <time>2019-01-12T08:48:19Z</time>
      </trkpt>
      <trkpt lat="42.7384" lon="1.45856">
        <ele>941.75</ele>
        <time>2019-01-12T08:48:35Z</time>
      </trkpt>
      <trkpt lat="42.73833" lon="1.45848">
        <ele>942.71</ele>
        <time>2019-01-12T08:48:49Z</time>
      </trkpt>
      <trkpt lat="42.73827" lon="1.45846">
        <ele>944.15</ele>
        <time>2019-01-12T08:49:00Z</time>
      </trkpt>
      <trkpt lat="42.73825" lon="1.45835">
        <ele>947.04</ele>
        <time>2019-01-12T08:49:17Z</time>
      </trkpt>
      <trkpt lat="42.73824" lon="1.45823">
        <ele>948.48</ele>
        <time>2019-01-12T08:49:31Z</time>
      </trkpt>
      <trkpt lat="42.73818" lon="1.45814">
        <ele>950.4</ele>
        <time>2019-01-12T08:49:44Z</time>
      </trkpt>
      <trkpt lat="42.73821" lon="1.45803">
        <ele>950.88</ele>
        <time>2019-01-12T08:49:58Z</time>
      </trkpt>
      <trkpt lat="42.73835" lon="1.45786">
        <ele>952.8</ele>
        <time>2019-01-12T08:50:21Z</time>
      </trkpt>
      <trkpt lat="42.73846" lon="1.4577">
        <ele>954.73</ele>
        <time>2019-01-12T08:50:37Z</time>
      </trkpt>
      <trkpt lat="42.73852" lon="1.45764">
        <ele>958.57</ele>
        <time>2019-01-12T08:51:00Z</time>
      </trkpt>
      <trkpt lat="42.73863" lon="1.45765">
        <ele>961.46</ele>
        <time>2019-01-12T08:51:24Z</time>
      </trkpt>
      <trkpt lat="42.73874" lon="1.45758">
        <ele>961.94</ele>
        <time>2019-01-12T08:51:50Z</time>
      </trkpt>
      <trkpt lat="42.73868" lon="1.45754">
        <ele>962.9</ele>
        <time>2019-01-12T08:53:12Z</time>
      </trkpt>
      <trkpt lat="42.73871" lon="1.45744">
        <ele>966.26</ele>
        <time>2019-01-12T08:53:33Z</time>
      </trkpt>
      <trkpt lat="42.7388" lon="1.45744">
        <ele>970.11</ele>
        <time>2019-01-12T08:54:00Z</time>
      </trkpt>
      <trkpt lat="42.7389" lon="1.45737">
        <ele>973.95</ele>
        <time>2019-01-12T08:54:25Z</time>
      </trkpt>
      <trkpt lat="42.73901" lon="1.45737">
        <ele>978.28</ele>
        <time>2019-01-12T08:54:53Z</time>
      </trkpt>
      <trkpt lat="42.73907" lon="1.45726">
        <ele>981.64</ele>
        <time>2019-01-12T08:56:07Z</time>
      </trkpt>
      <trkpt lat="42.73916" lon="1.45737">
        <ele>986.45</ele>
        <time>2019-01-12T08:56:37Z</time>
      </trkpt>
      <trkpt lat="42.73923" lon="1.45736">
        <ele>990.3</ele>
        <time>2019-01-12T08:57:02Z</time>
      </trkpt>
      <trkpt lat="42.73931" lon="1.4573">
        <ele>992.7</ele>
        <time>2019-01-12T08:57:18Z</time>
      </trkpt>
      <trkpt lat="42.73941" lon="1.45728">
        <ele>994.14</ele>
        <time>2019-01-12T08:57:33Z</time>
      </trkpt>
      <trkpt lat="42.73951" lon="1.4573">
        <ele>996.06</ele>
        <time>2019-01-12T08:57:47Z</time>
      </trkpt>
      <trkpt lat="42.73961" lon="1.45734">
        <ele>997.99</ele>
        <time>2019-01-12T08:58:05Z</time>
      </trkpt>
      <trkpt lat="42.73962" lon="1.45728">
        <ele>999.43</ele>
        <time>2019-01-12T08:58:20Z</time>
      </trkpt>
      <trkpt lat="42.73955" lon="1.45723">
        <ele>1000.39</ele>
        <time>2019-01-12T08:58:33Z</time>
      </trkpt>
      <trkpt lat="42.73948" lon="1.45712">
        <ele>1003.27</ele>
        <time>2019-01-12T08:58:50Z</time>
      </trkpt>
      <trkpt lat="42.73941" lon="1.45697">
        <ele>1004.72</ele>
        <time>2019-01-12T08:59:06Z</time>
      </trkpt>
      <trkpt lat="42.7395" lon="1.45695">
        <ele>1007.6</ele>
        <time>2019-01-12T08:59:24Z</time>
      </trkpt>
      <trkpt lat="42.73961" lon="1.45697">
        <ele>1010.48</ele>
        <time>2019-01-12T08:59:48Z</time>
      </trkpt>
      <trkpt lat="42.73973" lon="1.457">
        <ele>1014.81</ele>
        <time>2019-01-12T09:00:13Z</time>
      </trkpt>
      <trkpt lat="42.73983" lon="1.45706">
        <ele>1016.73</ele>
        <time>2019-01-12T09:00:30Z</time>
      </trkpt>
      <trkpt lat="42.73993" lon="1.45703">
        <ele>1020.1</ele>
        <time>2019-01-12T09:00:50Z</time>
      </trkpt>
      <trkpt lat="42.74005" lon="1.45698">
        <ele>1022.98</ele>
        <time>2019-01-12T09:01:10Z</time>
      </trkpt>
      <trkpt lat="42.74012" lon="1.45695">
        <ele>1026.34</ele>
        <time>2019-01-12T09:01:35Z</time>
      </trkpt>
      <trkpt lat="42.74003" lon="1.45689">
        <ele>1028.75</ele>
        <time>2019-01-12T09:01:58Z</time>
      </trkpt>
      <trkpt lat="42.73994" lon="1.45683">
        <ele>1032.11</ele>
        <time>2019-01-12T09:02:20Z</time>
      </trkpt>
      <trkpt lat="42.73987" lon="1.45668">
        <ele>1035</ele>
        <time>2019-01-12T09:02:43Z</time>
      </trkpt>
      <trkpt lat="42.73986" lon="1.45646">
        <ele>1038.36</ele>
        <time>2019-01-12T09:03:07Z</time>
      </trkpt>
      <trkpt lat="42.73985" lon="1.45632">
        <ele>1041.25</ele>
        <time>2019-01-12T09:03:30Z</time>
      </trkpt>
      <trkpt lat="42.73996" lon="1.45637">
        <ele>1044.13</ele>
        <time>2019-01-12T09:03:54Z</time>
      </trkpt>
      <trkpt lat="42.74002" lon="1.45639">
        <ele>1046.53</ele>
        <time>2019-01-12T09:04:22Z</time>
      </trkpt>
      <trkpt lat="42.73999" lon="1.45628">
        <ele>1050.38</ele>
        <time>2019-01-12T09:04:52Z</time>
      </trkpt>
      <trkpt lat="42.73999" lon="1.45616">
        <ele>1052.78</ele>
        <time>2019-01-12T09:05:12Z</time>
      </trkpt>
      <trkpt lat="42.74008" lon="1.45624">
        <ele>1056.15</ele>
        <time>2019-01-12T09:05:36Z</time>
      </trkpt>
      <trkpt lat="42.74016" lon="1.45631">
        <ele>1059.03</ele>
        <time>2019-01-12T09:05:57Z</time>
      </trkpt>
      <trkpt lat="42.74023" lon="1.45636">
        <ele>1059.99</ele>
        <time>2019-01-12T09:06:12Z</time>
      </trkpt>
      <trkpt lat="42.74027" lon="1.45627">
        <ele>1063.36</ele>
        <time>2019-01-12T09:06:33Z</time>
      </trkpt>
      <trkpt lat="42.74023" lon="1.45628">
        <ele>1062.87</ele>
        <time>2019-01-12T09:07:40Z</time>
      </trkpt>
      <trkpt lat="42.74027" lon="1.45633">
        <ele>1062.39</ele>
        <time>2019-01-12T09:08:13Z</time>
      </trkpt>
      <trkpt lat="42.74016" lon="1.4564">
        <ele>1058.55</ele>
        <time>2019-01-12T09:08:31Z</time>
      </trkpt>
      <trkpt lat="42.74019" lon="1.45638">
        <ele>1059.99</ele>
        <time>2019-01-12T09:09:38Z</time>
      </trkpt>
      <trkpt lat="42.74022" lon="1.45628">
        <ele>1062.87</ele>
        <time>2019-01-12T09:10:02Z</time>
      </trkpt>
      <trkpt lat="42.74024" lon="1.45633">
        <ele>1063.36</ele>
        <time>2019-01-12T09:12:13Z</time>
      </trkpt>
      <trkpt lat="42.74021" lon="1.45621">
        <ele>1064.8</ele>
        <time>2019-01-12T09:12:41Z</time>
      </trkpt>
      <trkpt lat="42.74022" lon="1.45605">
        <ele>1067.68</ele>
        <time>2019-01-12T09:12:58Z</time>
      </trkpt>
      <trkpt lat="42.7403" lon="1.45604">
        <ele>1072.49</ele>
        <time>2019-01-12T09:13:25Z</time>
      </trkpt>
      <trkpt lat="42.74043" lon="1.45608">
        <ele>1075.85</ele>
        <time>2019-01-12T09:13:49Z</time>
      </trkpt>
      <trkpt lat="42.7404" lon="1.45601">
        <ele>1078.26</ele>
        <time>2019-01-12T09:14:08Z</time>
      </trkpt>
      <trkpt lat="42.7404" lon="1.45586">
        <ele>1081.62</ele>
        <time>2019-01-12T09:14:29Z</time>
      </trkpt>
      <trkpt lat="42.74052" lon="1.45591">
        <ele>1084.02</ele>
        <time>2019-01-12T09:14:49Z</time>
      </trkpt>
      <trkpt lat="42.74061" lon="1.45589">
        <ele>1086.91</ele>
        <time>2019-01-12T09:15:13Z</time>
      </trkpt>
      <trkpt lat="42.74052" lon="1.45583">
        <ele>1090.27</ele>
        <time>2019-01-12T09:15:34Z</time>
      </trkpt>
      <trkpt lat="42.74048" lon="1.45568">
        <ele>1093.16</ele>
        <time>2019-01-12T09:15:57Z</time>
      </trkpt>
      <trkpt lat="42.74056" lon="1.45567">
        <ele>1096.04</ele>
        <time>2019-01-12T09:16:20Z</time>
      </trkpt>
      <trkpt lat="42.74067" lon="1.45573">
        <ele>1098.92</ele>
        <time>2019-01-12T09:16:42Z</time>
      </trkpt>
      <trkpt lat="42.74078" lon="1.45575">
        <ele>1103.25</ele>
        <time>2019-01-12T09:17:10Z</time>
      </trkpt>
      <trkpt lat="42.74075" lon="1.45562">
        <ele>1106.13</ele>
        <time>2019-01-12T09:17:33Z</time>
      </trkpt>
      <trkpt lat="42.74071" lon="1.4555">
        <ele>1109.5</ele>
        <time>2019-01-12T09:17:56Z</time>
      </trkpt>
      <trkpt lat="42.74069" lon="1.45537">
        <ele>1111.9</ele>
        <time>2019-01-12T09:18:13Z</time>
      </trkpt>
      <trkpt lat="42.74066" lon="1.45523">
        <ele>1113.82</ele>
        <time>2019-01-12T09:18:31Z</time>
      </trkpt>
      <trkpt lat="42.74073" lon="1.45528">
        <ele>1116.71</ele>
        <time>2019-01-12T09:18:57Z</time>
      </trkpt>
      <trkpt lat="42.74088" lon="1.45539">
        <ele>1120.55</ele>
        <time>2019-01-12T09:19:32Z</time>
      </trkpt>
      <trkpt lat="42.74087" lon="1.45531">
        <ele>1123.44</ele>
        <time>2019-01-12T09:19:54Z</time>
      </trkpt>
      <trkpt lat="42.7409" lon="1.45523">
        <ele>1126.32</ele>
        <time>2019-01-12T09:20:17Z</time>
      </trkpt>
      <trkpt lat="42.741" lon="1.45528">
        <ele>1129.69</ele>
        <time>2019-01-12T09:20:43Z</time>
      </trkpt>
      <trkpt lat="42.74108" lon="1.45529">
        <ele>1133.53</ele>
        <time>2019-01-12T09:21:15Z</time>
      </trkpt>
      <trkpt lat="42.74107" lon="1.45513">
        <ele>1137.86</ele>
        <time>2019-01-12T09:21:43Z</time>
      </trkpt>
      <trkpt lat="42.74111" lon="1.45511">
        <ele>1141.7</ele>
        <time>2019-01-12T09:22:07Z</time>
      </trkpt>
      <trkpt lat="42.74116" lon="1.45508">
        <ele>1143.63</ele>
        <time>2019-01-12T09:22:28Z</time>
      </trkpt>
      <trkpt lat="42.74127" lon="1.45512">
        <ele>1146.99</ele>
        <time>2019-01-12T09:22:50Z</time>
      </trkpt>
      <trkpt lat="42.74123" lon="1.45497">
        <ele>1149.87</ele>
        <time>2019-01-12T09:23:13Z</time>
      </trkpt>
      <trkpt lat="42.74131" lon="1.45499">
        <ele>1153.24</ele>
        <time>2019-01-12T09:23:46Z</time>
      </trkpt>
      <trkpt lat="42.74144" lon="1.45509">
        <ele>1159.49</ele>
        <time>2019-01-12T09:24:27Z</time>
      </trkpt>
      <trkpt lat="42.74146" lon="1.455">
        <ele>1163.81</ele>
        <time>2019-01-12T09:25:00Z</time>
      </trkpt>
      <trkpt lat="42.74158" lon="1.45501">
        <ele>1168.14</ele>
        <time>2019-01-12T09:25:32Z</time>
      </trkpt>
      <trkpt lat="42.74162" lon="1.455">
        <ele>1171.98</ele>
        <time>2019-01-12T09:27:20Z</time>
      </trkpt>
      <trkpt lat="42.74164" lon="1.4549">
        <ele>1174.39</ele>
        <time>2019-01-12T09:27:44Z</time>
      </trkpt>
      <trkpt lat="42.74167" lon="1.45479">
        <ele>1179.19</ele>
        <time>2019-01-12T09:28:16Z</time>
      </trkpt>
      <trkpt lat="42.74168" lon="1.45468">
        <ele>1182.56</ele>
        <time>2019-01-12T09:28:39Z</time>
      </trkpt>
      <trkpt lat="42.74171" lon="1.45464">
        <ele>1186.88</ele>
        <time>2019-01-12T09:29:09Z</time>
      </trkpt>
      <trkpt lat="42.74181" lon="1.45473">
        <ele>1190.73</ele>
        <time>2019-01-12T09:29:33Z</time>
      </trkpt>
      <trkpt lat="42.74192" lon="1.45479">
        <ele>1195.54</ele>
        <time>2019-01-12T09:30:05Z</time>
      </trkpt>
      <trkpt lat="42.742" lon="1.45488">
        <ele>1197.46</ele>
        <time>2019-01-12T09:30:25Z</time>
      </trkpt>
      <trkpt lat="42.74204" lon="1.45497">
        <ele>1201.79</ele>
        <time>2019-01-12T09:30:53Z</time>
      </trkpt>
      <trkpt lat="42.74202" lon="1.45489">
        <ele>1204.19</ele>
        <time>2019-01-12T09:31:13Z</time>
      </trkpt>
      <trkpt lat="42.74204" lon="1.45477">
        <ele>1206.59</ele>
        <time>2019-01-12T09:31:33Z</time>
      </trkpt>
      <trkpt lat="42.74204" lon="1.45466">
        <ele>1209.48</ele>
        <time>2019-01-12T09:31:55Z</time>
      </trkpt>
      <trkpt lat="42.74204" lon="1.45449">
        <ele>1211.4</ele>
        <time>2019-01-12T09:32:11Z</time>
      </trkpt>
      <trkpt lat="42.74203" lon="1.4544">
        <ele>1213.32</ele>
        <time>2019-01-12T09:32:28Z</time>
      </trkpt>
      <trkpt lat="42.74213" lon="1.4545">
        <ele>1215.72</ele>
        <time>2019-01-12T09:32:48Z</time>
      </trkpt>
      <trkpt lat="42.74219" lon="1.45462">
        <ele>1218.61</ele>
        <time>2019-01-12T09:33:09Z</time>
      </trkpt>
      <trkpt lat="42.74223" lon="1.45479">
        <ele>1221.97</ele>
        <time>2019-01-12T09:33:30Z</time>
      </trkpt>
      <trkpt lat="42.74229" lon="1.45488">
        <ele>1224.86</ele>
        <time>2019-01-12T09:33:55Z</time>
      </trkpt>
      <trkpt lat="42.74229" lon="1.45475">
        <ele>1227.74</ele>
        <time>2019-01-12T09:34:13Z</time>
      </trkpt>
      <trkpt lat="42.74231" lon="1.45467">
        <ele>1230.62</ele>
        <time>2019-01-12T09:34:34Z</time>
      </trkpt>
      <trkpt lat="42.74239" lon="1.45475">
        <ele>1233.99</ele>
        <time>2019-01-12T09:34:58Z</time>
      </trkpt>
      <trkpt lat="42.74246" lon="1.45495">
        <ele>1238.32</ele>
        <time>2019-01-12T09:35:33Z</time>
      </trkpt>
      <trkpt lat="42.7425" lon="1.45484">
        <ele>1241.2</ele>
        <time>2019-01-12T09:35:55Z</time>
      </trkpt>
      <trkpt lat="42.74255" lon="1.45474">
        <ele>1246.49</ele>
        <time>2019-01-12T09:36:27Z</time>
      </trkpt>
      <trkpt lat="42.74258" lon="1.4546">
        <ele>1250.33</ele>
        <time>2019-01-12T09:36:57Z</time>
      </trkpt>
      <trkpt lat="42.74256" lon="1.45444">
        <ele>1252.74</ele>
        <time>2019-01-12T09:37:24Z</time>
      </trkpt>
      <trkpt lat="42.74257" lon="1.45432">
        <ele>1255.62</ele>
        <time>2019-01-12T09:37:46Z</time>
      </trkpt>
      <trkpt lat="42.74258" lon="1.4542">
        <ele>1259.46</ele>
        <time>2019-01-12T09:38:12Z</time>
      </trkpt>
      <trkpt lat="42.74269" lon="1.45428">
        <ele>1264.27</ele>
        <time>2019-01-12T09:38:48Z</time>
      </trkpt>
      <trkpt lat="42.74276" lon="1.45436">
        <ele>1270.52</ele>
        <time>2019-01-12T09:39:25Z</time>
      </trkpt>
      <trkpt lat="42.74289" lon="1.4545">
        <ele>1274.85</ele>
        <time>2019-01-12T09:40:02Z</time>
      </trkpt>
      <trkpt lat="42.74298" lon="1.45452">
        <ele>1278.21</ele>
        <time>2019-01-12T09:40:26Z</time>
      </trkpt>
      <trkpt lat="42.74303" lon="1.45437">
        <ele>1282.06</ele>
        <time>2019-01-12T09:40:55Z</time>
      </trkpt>
      <trkpt lat="42.74299" lon="1.45426">
        <ele>1285.42</ele>
        <time>2019-01-12T09:41:22Z</time>
      </trkpt>
      <trkpt lat="42.74297" lon="1.45409">
        <ele>1288.3</ele>
        <time>2019-01-12T09:41:50Z</time>
      </trkpt>
      <trkpt lat="42.74296" lon="1.45397">
        <ele>1292.63</ele>
        <time>2019-01-12T09:42:17Z</time>
      </trkpt>
      <trkpt lat="42.743" lon="1.45389">
        <ele>1295.03</ele>
        <time>2019-01-12T09:42:38Z</time>
      </trkpt>
      <trkpt lat="42.74307" lon="1.45395">
        <ele>1298.88</ele>
        <time>2019-01-12T09:43:02Z</time>
      </trkpt>
      <trkpt lat="42.74311" lon="1.45392">
        <ele>1301.28</ele>
        <time>2019-01-12T09:43:23Z</time>
      </trkpt>
      <trkpt lat="42.74311" lon="1.45381">
        <ele>1303.69</ele>
        <time>2019-01-12T09:43:41Z</time>
      </trkpt>
      <trkpt lat="42.74311" lon="1.45368">
        <ele>1305.61</ele>
        <time>2019-01-12T09:43:58Z</time>
      </trkpt>
      <trkpt lat="42.74312" lon="1.45367">
        <ele>1308.97</ele>
        <time>2019-01-12T09:44:21Z</time>
      </trkpt>
      <trkpt lat="42.74321" lon="1.45375">
        <ele>1312.34</ele>
        <time>2019-01-12T09:44:44Z</time>
      </trkpt>
      <trkpt lat="42.74327" lon="1.45381">
        <ele>1315.7</ele>
        <time>2019-01-12T09:45:06Z</time>
      </trkpt>
      <trkpt lat="42.74336" lon="1.45375">
        <ele>1319.07</ele>
        <time>2019-01-12T09:45:28Z</time>
      </trkpt>
      <trkpt lat="42.74332" lon="1.45367">
        <ele>1322.91</ele>
        <time>2019-01-12T09:45:51Z</time>
      </trkpt>
      <trkpt lat="42.7433" lon="1.4535">
        <ele>1325.8</ele>
        <time>2019-01-12T09:46:10Z</time>
      </trkpt>
      <trkpt lat="42.74332" lon="1.45338">
        <ele>1328.68</ele>
        <time>2019-01-12T09:46:30Z</time>
      </trkpt>
      <trkpt lat="42.74338" lon="1.45331">
        <ele>1332.04</ele>
        <time>2019-01-12T09:46:54Z</time>
      </trkpt>
      <trkpt lat="42.74346" lon="1.45337">
        <ele>1335.41</ele>
        <time>2019-01-12T09:47:12Z</time>
      </trkpt>
      <trkpt lat="42.74349" lon="1.45322">
        <ele>1338.29</ele>
        <time>2019-01-12T09:47:45Z</time>
      </trkpt>
      <trkpt lat="42.74351" lon="1.45308">
        <ele>1340.7</ele>
        <time>2019-01-12T09:48:04Z</time>
      </trkpt>
      <trkpt lat="42.74357" lon="1.45301">
        <ele>1345.02</ele>
        <time>2019-01-12T09:48:27Z</time>
      </trkpt>
      <trkpt lat="42.74363" lon="1.45299">
        <ele>1350.31</ele>
        <time>2019-01-12T09:49:02Z</time>
      </trkpt>
      <trkpt lat="42.74362" lon="1.45286">
        <ele>1354.15</ele>
        <time>2019-01-12T09:49:27Z</time>
      </trkpt>
      <trkpt lat="42.74372" lon="1.45289">
        <ele>1358.96</ele>
        <time>2019-01-12T09:49:58Z</time>
      </trkpt>
      <trkpt lat="42.74374" lon="1.45286">
        <ele>1361.84</ele>
        <time>2019-01-12T09:50:20Z</time>
      </trkpt>
      <trkpt lat="42.74377" lon="1.45274">
        <ele>1365.69</ele>
        <time>2019-01-12T09:50:46Z</time>
      </trkpt>
      <trkpt lat="42.74386" lon="1.45282">
        <ele>1370.02</ele>
        <time>2019-01-12T09:51:20Z</time>
      </trkpt>
      <trkpt lat="42.74387" lon="1.45267">
        <ele>1374.34</ele>
        <time>2019-01-12T09:51:48Z</time>
      </trkpt>
      <trkpt lat="42.74392" lon="1.45265">
        <ele>1378.19</ele>
        <time>2019-01-12T09:52:14Z</time>
      </trkpt>
      <trkpt lat="42.744" lon="1.45266">
        <ele>1382.03</ele>
        <time>2019-01-12T09:52:42Z</time>
      </trkpt>
      <trkpt lat="42.74398" lon="1.45251">
        <ele>1385.4</ele>
        <time>2019-01-12T09:53:04Z</time>
      </trkpt>
      <trkpt lat="42.74398" lon="1.45242">
        <ele>1390.2</ele>
        <time>2019-01-12T09:53:34Z</time>
      </trkpt>
      <trkpt lat="42.74402" lon="1.45239">
        <ele>1393.09</ele>
        <time>2019-01-12T09:53:58Z</time>
      </trkpt>
      <trkpt lat="42.74407" lon="1.45229">
        <ele>1396.93</ele>
        <time>2019-01-12T09:54:24Z</time>
      </trkpt>
      <trkpt lat="42.74407" lon="1.45223">
        <ele>1401.26</ele>
        <time>2019-01-12T09:54:48Z</time>
      </trkpt>
      <trkpt lat="42.74413" lon="1.45221">
        <ele>1405.58</ele>
        <time>2019-01-12T09:55:12Z</time>
      </trkpt>
      <trkpt lat="42.74409" lon="1.45206">
        <ele>1408.47</ele>
        <time>2019-01-12T09:55:37Z</time>
      </trkpt>
      <trkpt lat="42.74404" lon="1.45192">
        <ele>1412.31</ele>
        <time>2019-01-12T09:56:05Z</time>
      </trkpt>
      <trkpt lat="42.74416" lon="1.45195">
        <ele>1416.64</ele>
        <time>2019-01-12T09:56:35Z</time>
      </trkpt>
      <trkpt lat="42.74429" lon="1.45201">
        <ele>1419.52</ele>
        <time>2019-01-12T09:56:58Z</time>
      </trkpt>
      <trkpt lat="42.74436" lon="1.45202">
        <ele>1423.37</ele>
        <time>2019-01-12T09:57:24Z</time>
      </trkpt>
      <trkpt lat="42.74434" lon="1.45192">
        <ele>1425.29</ele>
        <time>2019-01-12T09:57:39Z</time>
      </trkpt>
      <trkpt lat="42.7443" lon="1.45182">
        <ele>1427.7</ele>
        <time>2019-01-12T09:57:55Z</time>
      </trkpt>
      <trkpt lat="42.74425" lon="1.45169">
        <ele>1431.54</ele>
        <time>2019-01-12T09:58:14Z</time>
      </trkpt>
      <trkpt lat="42.74421" lon="1.45158">
        <ele>1434.42</ele>
        <time>2019-01-12T09:58:33Z</time>
      </trkpt>
      <trkpt lat="42.74415" lon="1.45145">
        <ele>1438.27</ele>
        <time>2019-01-12T09:58:54Z</time>
      </trkpt>
      <trkpt lat="42.74425" lon="1.45146">
        <ele>1442.6</ele>
        <time>2019-01-12T09:59:30Z</time>
      </trkpt>
      <trkpt lat="42.74439" lon="1.45142">
        <ele>1446.44</ele>
        <time>2019-01-12T10:00:00Z</time>
      </trkpt>
      <trkpt lat="42.74454" lon="1.45137">
        <ele>1449.81</ele>
        <time>2019-01-12T10:00:28Z</time>
      </trkpt>
      <trkpt lat="42.74467" lon="1.45125">
        <ele>1451.25</ele>
        <time>2019-01-12T10:00:45Z</time>
      </trkpt>
      <trkpt lat="42.74475" lon="1.45115">
        <ele>1451.73</ele>
        <time>2019-01-12T10:01:02Z</time>
      </trkpt>
      <trkpt lat="42.74483" lon="1.45111">
        <ele>1450.29</ele>
        <time>2019-01-12T10:06:26Z</time>
      </trkpt>
      <trkpt lat="42.74482" lon="1.45097">
        <ele>1446.44</ele>
        <time>2019-01-12T10:06:40Z</time>
      </trkpt>
      <trkpt lat="42.7449" lon="1.45082">
        <ele>1443.08</ele>
        <time>2019-01-12T10:06:53Z</time>
      </trkpt>
      <trkpt lat="42.745" lon="1.45074">
        <ele>1441.63</ele>
        <time>2019-01-12T10:07:05Z</time>
      </trkpt>
      <trkpt lat="42.74515" lon="1.45056">
        <ele>1441.63</ele>
        <time>2019-01-12T10:07:22Z</time>
      </trkpt>
      <trkpt lat="42.74521" lon="1.4504">
        <ele>1439.23</ele>
        <time>2019-01-12T10:07:37Z</time>
      </trkpt>
      <trkpt lat="42.74528" lon="1.45023">
        <ele>1436.35</ele>
        <time>2019-01-12T10:07:54Z</time>
      </trkpt>
      <trkpt lat="42.74537" lon="1.4501">
        <ele>1433.46</ele>
        <time>2019-01-12T10:08:13Z</time>
      </trkpt>
      <trkpt lat="42.74549" lon="1.45001">
        <ele>1430.58</ele>
        <time>2019-01-12T10:08:27Z</time>
      </trkpt>
      <trkpt lat="42.74562" lon="1.44981">
        <ele>1432.02</ele>
        <time>2019-01-12T10:08:55Z</time>
      </trkpt>
      <trkpt lat="42.74574" lon="1.44964">
        <ele>1436.35</ele>
        <time>2019-01-12T10:09:30Z</time>
      </trkpt>
      <trkpt lat="42.74588" lon="1.44934">
        <ele>1439.23</ele>
        <time>2019-01-12T10:09:53Z</time>
      </trkpt>
      <trkpt lat="42.746" lon="1.44917">
        <ele>1442.11</ele>
        <time>2019-01-12T10:10:16Z</time>
      </trkpt>
      <trkpt lat="42.74606" lon="1.44903">
        <ele>1443.56</ele>
        <time>2019-01-12T10:10:32Z</time>
      </trkpt>
      <trkpt lat="42.7461" lon="1.44893">
        <ele>1446.44</ele>
        <time>2019-01-12T10:10:53Z</time>
      </trkpt>
      <trkpt lat="42.74619" lon="1.44883">
        <ele>1447.88</ele>
        <time>2019-01-12T10:11:12Z</time>
      </trkpt>
      <trkpt lat="42.74626" lon="1.44873">
        <ele>1450.29</ele>
        <time>2019-01-12T10:11:29Z</time>
      </trkpt>
      <trkpt lat="42.74634" lon="1.44862">
        <ele>1451.73</ele>
        <time>2019-01-12T10:11:43Z</time>
      </trkpt>
      <trkpt lat="42.74643" lon="1.44853">
        <ele>1455.57</ele>
        <time>2019-01-12T10:12:01Z</time>
      </trkpt>
      <trkpt lat="42.74656" lon="1.44843">
        <ele>1457.02</ele>
        <time>2019-01-12T10:12:27Z</time>
      </trkpt>
      <trkpt lat="42.74666" lon="1.44834">
        <ele>1457.5</ele>
        <time>2019-01-12T10:12:43Z</time>
      </trkpt>
      <trkpt lat="42.74677" lon="1.44828">
        <ele>1460.86</ele>
        <time>2019-01-12T10:13:05Z</time>
      </trkpt>
      <trkpt lat="42.74687" lon="1.44822">
        <ele>1463.26</ele>
        <time>2019-01-12T10:13:27Z</time>
      </trkpt>
      <trkpt lat="42.74697" lon="1.44821">
        <ele>1465.19</ele>
        <time>2019-01-12T10:13:46Z</time>
      </trkpt>
      <trkpt lat="42.74705" lon="1.44803">
        <ele>1468.55</ele>
        <time>2019-01-12T10:14:12Z</time>
      </trkpt>
      <trkpt lat="42.74718" lon="1.44777">
        <ele>1472.4</ele>
        <time>2019-01-12T10:14:39Z</time>
      </trkpt>
      <trkpt lat="42.74731" lon="1.44768">
        <ele>1472.88</ele>
        <time>2019-01-12T10:14:55Z</time>
      </trkpt>
      <trkpt lat="42.74737" lon="1.44755">
        <ele>1474.32</ele>
        <time>2019-01-12T10:15:09Z</time>
      </trkpt>
      <trkpt lat="42.74747" lon="1.44752">
        <ele>1474.8</ele>
        <time>2019-01-12T10:15:25Z</time>
      </trkpt>
      <trkpt lat="42.74757" lon="1.44743">
        <ele>1477.2</ele>
        <time>2019-01-12T10:15:44Z</time>
      </trkpt>
      <trkpt lat="42.74765" lon="1.44732">
        <ele>1478.65</ele>
        <time>2019-01-12T10:15:59Z</time>
      </trkpt>
      <trkpt lat="42.74772" lon="1.44723">
        <ele>1479.61</ele>
        <time>2019-01-12T10:16:12Z</time>
      </trkpt>
      <trkpt lat="42.74781" lon="1.44718">
        <ele>1481.53</ele>
        <time>2019-01-12T10:16:27Z</time>
      </trkpt>
      <trkpt lat="42.74787" lon="1.44708">
        <ele>1483.93</ele>
        <time>2019-01-12T10:16:46Z</time>
      </trkpt>
      <trkpt lat="42.74781" lon="1.44708">
        <ele>1486.82</ele>
        <time>2019-01-12T10:17:04Z</time>
      </trkpt>
      <trkpt lat="42.74793" lon="1.44703">
        <ele>1488.74</ele>
        <time>2019-01-12T10:17:26Z</time>
      </trkpt>
      <trkpt lat="42.74799" lon="1.44696">
        <ele>1492.1</ele>
        <time>2019-01-12T10:17:45Z</time>
      </trkpt>
      <trkpt lat="42.74804" lon="1.44689">
        <ele>1494.51</ele>
        <time>2019-01-12T10:18:01Z</time>
      </trkpt>
      <trkpt lat="42.74813" lon="1.44686">
        <ele>1496.43</ele>
        <time>2019-01-12T10:18:20Z</time>
      </trkpt>
      <trkpt lat="42.74817" lon="1.44677">
        <ele>1499.79</ele>
        <time>2019-01-12T10:18:38Z</time>
      </trkpt>
      <trkpt lat="42.74818" lon="1.44672">
        <ele>1502.2</ele>
        <time>2019-01-12T10:18:54Z</time>
      </trkpt>
      <trkpt lat="42.74826" lon="1.44665">
        <ele>1504.12</ele>
        <time>2019-01-12T10:19:09Z</time>
      </trkpt>
      <trkpt lat="42.74834" lon="1.44659">
        <ele>1505.56</ele>
        <time>2019-01-12T10:19:27Z</time>
      </trkpt>
      <trkpt lat="42.7484" lon="1.44649">
        <ele>1508.93</ele>
        <time>2019-01-12T10:19:46Z</time>
      </trkpt>
      <trkpt lat="42.74847" lon="1.44644">
        <ele>1511.81</ele>
        <time>2019-01-12T10:20:08Z</time>
      </trkpt>
      <trkpt lat="42.74852" lon="1.44639">
        <ele>1516.14</ele>
        <time>2019-01-12T10:20:38Z</time>
      </trkpt>
      <trkpt lat="42.74858" lon="1.44632">
        <ele>1518.06</ele>
        <time>2019-01-12T10:21:08Z</time>
      </trkpt>
      <trkpt lat="42.74859" lon="1.44628">
        <ele>1520.46</ele>
        <time>2019-01-12T10:21:27Z</time>
      </trkpt>
      <trkpt lat="42.74868" lon="1.44621">
        <ele>1522.39</ele>
        <time>2019-01-12T10:21:43Z</time>
      </trkpt>
      <trkpt lat="42.7487" lon="1.44615">
        <ele>1524.79</ele>
        <time>2019-01-12T10:22:02Z</time>
      </trkpt>
      <trkpt lat="42.74876" lon="1.44608">
        <ele>1527.19</ele>
        <time>2019-01-12T10:22:21Z</time>
      </trkpt>
      <trkpt lat="42.74884" lon="1.44603">
        <ele>1529.59</ele>
        <time>2019-01-12T10:22:41Z</time>
      </trkpt>
      <trkpt lat="42.7489" lon="1.44599">
        <ele>1530.08</ele>
        <time>2019-01-12T10:23:42Z</time>
      </trkpt>
      <trkpt lat="42.74895" lon="1.44602">
        <ele>1529.59</ele>
        <time>2019-01-12T10:28:06Z</time>
      </trkpt>
      <trkpt lat="42.74896" lon="1.44602">
        <ele>1528.15</ele>
        <time>2019-01-12T10:33:21Z</time>
      </trkpt>
      <trkpt lat="42.74896" lon="1.44591">
        <ele>1529.11</ele>
        <time>2019-01-12T10:33:53Z</time>
      </trkpt>
      <trkpt lat="42.74903" lon="1.44581">
        <ele>1527.19</ele>
        <time>2019-01-12T10:34:06Z</time>
      </trkpt>
      <trkpt lat="42.74913" lon="1.44575">
        <ele>1528.15</ele>
        <time>2019-01-12T10:34:18Z</time>
      </trkpt>
      <trkpt lat="42.74921" lon="1.44569">
        <ele>1528.15</ele>
        <time>2019-01-12T10:34:29Z</time>
      </trkpt>
      <trkpt lat="42.7493" lon="1.44562">
        <ele>1528.63</ele>
        <time>2019-01-12T10:34:42Z</time>
      </trkpt>
      <trkpt lat="42.74939" lon="1.44556">
        <ele>1530.08</ele>
        <time>2019-01-12T10:34:57Z</time>
      </trkpt>
      <trkpt lat="42.74945" lon="1.44547">
        <ele>1530.08</ele>
        <time>2019-01-12T10:35:09Z</time>
      </trkpt>
      <trkpt lat="42.74953" lon="1.44539">
        <ele>1529.59</ele>
        <time>2019-01-12T10:35:20Z</time>
      </trkpt>
      <trkpt lat="42.74961" lon="1.44533">
        <ele>1530.56</ele>
        <time>2019-01-12T10:35:32Z</time>
      </trkpt>
      <trkpt lat="42.74967" lon="1.44523">
        <ele>1529.59</ele>
        <time>2019-01-12T10:35:44Z</time>
      </trkpt>
      <trkpt lat="42.74976" lon="1.44516">
        <ele>1529.11</ele>
        <time>2019-01-12T10:35:55Z</time>
      </trkpt>
      <trkpt lat="42.74984" lon="1.44508">
        <ele>1528.15</ele>
        <time>2019-01-12T10:36:06Z</time>
      </trkpt>
      <trkpt lat="42.74993" lon="1.44504">
        <ele>1527.67</ele>
        <time>2019-01-12T10:36:16Z</time>
      </trkpt>
      <trkpt lat="42.74996" lon="1.44493">
        <ele>1527.19</ele>
        <time>2019-01-12T10:36:30Z</time>
      </trkpt>
      <trkpt lat="42.75002" lon="1.44489">
        <ele>1525.75</ele>
        <time>2019-01-12T10:36:48Z</time>
      </trkpt>
      <trkpt lat="42.75006" lon="1.44498">
        <ele>1522.87</ele>
        <time>2019-01-12T10:37:00Z</time>
      </trkpt>
      <trkpt lat="42.75014" lon="1.44491">
        <ele>1521.42</ele>
        <time>2019-01-12T10:37:13Z</time>
      </trkpt>
      <trkpt lat="42.75021" lon="1.44485">
        <ele>1521.42</ele>
        <time>2019-01-12T10:37:29Z</time>
      </trkpt>
      <trkpt lat="42.75032" lon="1.44484">
        <ele>1520.46</ele>
        <time>2019-01-12T10:37:42Z</time>
      </trkpt>
      <trkpt lat="42.75048" lon="1.44483">
        <ele>1521.42</ele>
        <time>2019-01-12T11:11:50Z</time>
      </trkpt>
      <trkpt lat="42.75056" lon="1.44479">
        <ele>1519.5</ele>
        <time>2019-01-12T11:12:15Z</time>
      </trkpt>
      <trkpt lat="42.7506" lon="1.44472">
        <ele>1518.54</ele>
        <time>2019-01-12T11:12:32Z</time>
      </trkpt>
      <trkpt lat="42.75069" lon="1.44469">
        <ele>1517.58</ele>
        <time>2019-01-12T11:12:44Z</time>
      </trkpt>
      <trkpt lat="42.75079" lon="1.44472">
        <ele>1516.14</ele>
        <time>2019-01-12T11:12:58Z</time>
      </trkpt>
      <trkpt lat="42.75087" lon="1.44482">
        <ele>1512.77</ele>
        <time>2019-01-12T11:13:15Z</time>
      </trkpt>
      <trkpt lat="42.75097" lon="1.44488">
        <ele>1511.81</ele>
        <time>2019-01-12T11:13:28Z</time>
      </trkpt>
      <trkpt lat="42.75108" lon="1.44489">
        <ele>1513.25</ele>
        <time>2019-01-12T11:13:44Z</time>
      </trkpt>
      <trkpt lat="42.75117" lon="1.44485">
        <ele>1513.25</ele>
        <time>2019-01-12T11:13:56Z</time>
      </trkpt>
      <trkpt lat="42.75127" lon="1.44482">
        <ele>1516.14</ele>
        <time>2019-01-12T11:14:13Z</time>
      </trkpt>
      <trkpt lat="42.75136" lon="1.44478">
        <ele>1518.54</ele>
        <time>2019-01-12T11:14:32Z</time>
      </trkpt>
      <trkpt lat="42.75137" lon="1.44474">
        <ele>1520.46</ele>
        <time>2019-01-12T11:14:52Z</time>
      </trkpt>
      <trkpt lat="42.75143" lon="1.44467">
        <ele>1522.39</ele>
        <time>2019-01-12T11:15:09Z</time>
      </trkpt>
      <trkpt lat="42.75153" lon="1.44461">
        <ele>1523.35</ele>
        <time>2019-01-12T11:15:25Z</time>
      </trkpt>
      <trkpt lat="42.75161" lon="1.44455">
        <ele>1523.35</ele>
        <time>2019-01-12T11:15:39Z</time>
      </trkpt>
      <trkpt lat="42.75169" lon="1.44448">
        <ele>1523.83</ele>
        <time>2019-01-12T11:15:54Z</time>
      </trkpt>
      <trkpt lat="42.75178" lon="1.44442">
        <ele>1525.27</ele>
        <time>2019-01-12T11:16:07Z</time>
      </trkpt>
      <trkpt lat="42.75184" lon="1.44434">
        <ele>1527.19</ele>
        <time>2019-01-12T11:16:25Z</time>
      </trkpt>
      <trkpt lat="42.75189" lon="1.44425">
        <ele>1527.67</ele>
        <time>2019-01-12T11:16:38Z</time>
      </trkpt>
      <trkpt lat="42.75198" lon="1.4442">
        <ele>1528.63</ele>
        <time>2019-01-12T11:16:54Z</time>
      </trkpt>
      <trkpt lat="42.75206" lon="1.44418">
        <ele>1529.11</ele>
        <time>2019-01-12T11:17:12Z</time>
      </trkpt>
      <trkpt lat="42.75217" lon="1.44417">
        <ele>1530.56</ele>
        <time>2019-01-12T11:17:29Z</time>
      </trkpt>
      <trkpt lat="42.75226" lon="1.44419">
        <ele>1532</ele>
        <time>2019-01-12T11:17:47Z</time>
      </trkpt>
      <trkpt lat="42.75236" lon="1.44414">
        <ele>1534.4</ele>
        <time>2019-01-12T11:18:06Z</time>
      </trkpt>
      <trkpt lat="42.75242" lon="1.4441">
        <ele>1537.77</ele>
        <time>2019-01-12T11:18:26Z</time>
      </trkpt>
      <trkpt lat="42.75248" lon="1.44404">
        <ele>1540.17</ele>
        <time>2019-01-12T11:18:46Z</time>
      </trkpt>
      <trkpt lat="42.75258" lon="1.44404">
        <ele>1541.13</ele>
        <time>2019-01-12T11:19:04Z</time>
      </trkpt>
      <trkpt lat="42.75262" lon="1.444">
        <ele>1544.5</ele>
        <time>2019-01-12T11:19:29Z</time>
      </trkpt>
      <trkpt lat="42.75271" lon="1.44396">
        <ele>1549.78</ele>
        <time>2019-01-12T11:20:03Z</time>
      </trkpt>
      <trkpt lat="42.75278" lon="1.44396">
        <ele>1553.15</ele>
        <time>2019-01-12T11:20:34Z</time>
      </trkpt>
      <trkpt lat="42.75282" lon="1.44392">
        <ele>1556.03</ele>
        <time>2019-01-12T11:20:55Z</time>
      </trkpt>
      <trkpt lat="42.75288" lon="1.44398">
        <ele>1558.43</ele>
        <time>2019-01-12T11:21:21Z</time>
      </trkpt>
      <trkpt lat="42.75286" lon="1.44385">
        <ele>1560.84</ele>
        <time>2019-01-12T11:21:40Z</time>
      </trkpt>
      <trkpt lat="42.75296" lon="1.44384">
        <ele>1565.16</ele>
        <time>2019-01-12T11:22:13Z</time>
      </trkpt>
      <trkpt lat="42.75305" lon="1.44394">
        <ele>1568.53</ele>
        <time>2019-01-12T11:22:42Z</time>
      </trkpt>
      <trkpt lat="42.75312" lon="1.44403">
        <ele>1570.45</ele>
        <time>2019-01-12T11:23:05Z</time>
      </trkpt>
      <trkpt lat="42.75319" lon="1.44412">
        <ele>1572.37</ele>
        <time>2019-01-12T11:23:23Z</time>
      </trkpt>
      <trkpt lat="42.75326" lon="1.44421">
        <ele>1573.82</ele>
        <time>2019-01-12T11:23:35Z</time>
      </trkpt>
      <trkpt lat="42.75335" lon="1.44425">
        <ele>1575.74</ele>
        <time>2019-01-12T11:23:50Z</time>
      </trkpt>
      <trkpt lat="42.75342" lon="1.44434">
        <ele>1578.14</ele>
        <time>2019-01-12T11:24:06Z</time>
      </trkpt>
      <trkpt lat="42.75344" lon="1.4445">
        <ele>1580.06</ele>
        <time>2019-01-12T11:24:25Z</time>
      </trkpt>
      <trkpt lat="42.75344" lon="1.44461">
        <ele>1581.51</ele>
        <time>2019-01-12T11:24:43Z</time>
      </trkpt>
      <trkpt lat="42.75345" lon="1.44474">
        <ele>1582.95</ele>
        <time>2019-01-12T11:24:59Z</time>
      </trkpt>
      <trkpt lat="42.75347" lon="1.44485">
        <ele>1583.91</ele>
        <time>2019-01-12T11:25:17Z</time>
      </trkpt>
      <trkpt lat="42.7535" lon="1.44497">
        <ele>1583.91</ele>
        <time>2019-01-12T11:25:30Z</time>
      </trkpt>
      <trkpt lat="42.75349" lon="1.44511">
        <ele>1585.83</ele>
        <time>2019-01-12T11:25:50Z</time>
      </trkpt>
      <trkpt lat="42.75352" lon="1.44523">
        <ele>1587.27</ele>
        <time>2019-01-12T11:26:07Z</time>
      </trkpt>
      <trkpt lat="42.75356" lon="1.44534">
        <ele>1589.2</ele>
        <time>2019-01-12T11:26:23Z</time>
      </trkpt>
      <trkpt lat="42.75365" lon="1.44538">
        <ele>1591.12</ele>
        <time>2019-01-12T11:26:39Z</time>
      </trkpt>
      <trkpt lat="42.75374" lon="1.44537">
        <ele>1592.56</ele>
        <time>2019-01-12T11:26:53Z</time>
      </trkpt>
      <trkpt lat="42.75373" lon="1.44527">
        <ele>1594</ele>
        <time>2019-01-12T11:27:08Z</time>
      </trkpt>
      <trkpt lat="42.75372" lon="1.44514">
        <ele>1594.96</ele>
        <time>2019-01-12T11:27:24Z</time>
      </trkpt>
      <trkpt lat="42.75374" lon="1.44502">
        <ele>1595.45</ele>
        <time>2019-01-12T11:27:37Z</time>
      </trkpt>
      <trkpt lat="42.7538" lon="1.44492">
        <ele>1596.41</ele>
        <time>2019-01-12T11:27:51Z</time>
      </trkpt>
      <trkpt lat="42.75386" lon="1.44482">
        <ele>1596.89</ele>
        <time>2019-01-12T11:28:04Z</time>
      </trkpt>
      <trkpt lat="42.75389" lon="1.44473">
        <ele>1595.93</ele>
        <time>2019-01-12T11:28:19Z</time>
      </trkpt>
      <trkpt lat="42.75396" lon="1.44465">
        <ele>1595.93</ele>
        <time>2019-01-12T11:28:40Z</time>
      </trkpt>
      <trkpt lat="42.75404" lon="1.44467">
        <ele>1594.96</ele>
        <time>2019-01-12T11:30:09Z</time>
      </trkpt>
      <trkpt lat="42.75408" lon="1.44466">
        <ele>1594.96</ele>
        <time>2019-01-12T11:30:35Z</time>
      </trkpt>
      <trkpt lat="42.75418" lon="1.44466">
        <ele>1595.45</ele>
        <time>2019-01-12T11:30:48Z</time>
      </trkpt>
      <trkpt lat="42.75425" lon="1.44459">
        <ele>1595.93</ele>
        <time>2019-01-12T11:31:06Z</time>
      </trkpt>
      <trkpt lat="42.75434" lon="1.44463">
        <ele>1597.37</ele>
        <time>2019-01-12T11:31:24Z</time>
      </trkpt>
      <trkpt lat="42.7544" lon="1.44456">
        <ele>1596.89</ele>
        <time>2019-01-12T11:31:37Z</time>
      </trkpt>
      <trkpt lat="42.75445" lon="1.44447">
        <ele>1596.89</ele>
        <time>2019-01-12T11:31:50Z</time>
      </trkpt>
      <trkpt lat="42.75448" lon="1.44436">
        <ele>1597.37</ele>
        <time>2019-01-12T11:32:03Z</time>
      </trkpt>
      <trkpt lat="42.75453" lon="1.44425">
        <ele>1597.85</ele>
        <time>2019-01-12T11:32:16Z</time>
      </trkpt>
      <trkpt lat="42.75459" lon="1.44416">
        <ele>1597.85</ele>
        <time>2019-01-12T11:32:32Z</time>
      </trkpt>
      <trkpt lat="42.75464" lon="1.44406">
        <ele>1598.81</ele>
        <time>2019-01-12T11:32:47Z</time>
      </trkpt>
      <trkpt lat="42.75468" lon="1.44395">
        <ele>1598.81</ele>
        <time>2019-01-12T11:33:00Z</time>
      </trkpt>
      <trkpt lat="42.75468" lon="1.44385">
        <ele>1599.77</ele>
        <time>2019-01-12T11:33:13Z</time>
      </trkpt>
      <trkpt lat="42.75471" lon="1.44374">
        <ele>1600.73</ele>
        <time>2019-01-12T11:33:28Z</time>
      </trkpt>
      <trkpt lat="42.75475" lon="1.44363">
        <ele>1601.21</ele>
        <time>2019-01-12T11:33:40Z</time>
      </trkpt>
      <trkpt lat="42.75478" lon="1.44351">
        <ele>1602.66</ele>
        <time>2019-01-12T11:33:53Z</time>
      </trkpt>
      <trkpt lat="42.75483" lon="1.44339">
        <ele>1603.14</ele>
        <time>2019-01-12T11:34:08Z</time>
      </trkpt>
      <trkpt lat="42.75488" lon="1.4433">
        <ele>1604.58</ele>
        <time>2019-01-12T11:34:25Z</time>
      </trkpt>
      <trkpt lat="42.75496" lon="1.44323">
        <ele>1605.06</ele>
        <time>2019-01-12T11:34:39Z</time>
      </trkpt>
      <trkpt lat="42.755" lon="1.44312">
        <ele>1606.5</ele>
        <time>2019-01-12T11:34:57Z</time>
      </trkpt>
      <trkpt lat="42.75498" lon="1.443">
        <ele>1606.02</ele>
        <time>2019-01-12T11:35:10Z</time>
      </trkpt>
      <trkpt lat="42.75512" lon="1.44286">
        <ele>1606.02</ele>
        <time>2019-01-12T11:36:30Z</time>
      </trkpt>
      <trkpt lat="42.75521" lon="1.44281">
        <ele>1607.46</ele>
        <time>2019-01-12T11:36:48Z</time>
      </trkpt>
      <trkpt lat="42.75527" lon="1.44274">
        <ele>1607.94</ele>
        <time>2019-01-12T11:36:58Z</time>
      </trkpt>
      <trkpt lat="42.75533" lon="1.44267">
        <ele>1608.42</ele>
        <time>2019-01-12T11:37:08Z</time>
      </trkpt>
      <trkpt lat="42.7554" lon="1.44257">
        <ele>1607.94</ele>
        <time>2019-01-12T11:37:19Z</time>
      </trkpt>
      <trkpt lat="42.75542" lon="1.44245">
        <ele>1607.46</ele>
        <time>2019-01-12T11:37:29Z</time>
      </trkpt>
      <trkpt lat="42.75542" lon="1.44232">
        <ele>1607.94</ele>
        <time>2019-01-12T11:37:39Z</time>
      </trkpt>
      <trkpt lat="42.7554" lon="1.44219">
        <ele>1608.42</ele>
        <time>2019-01-12T11:37:51Z</time>
      </trkpt>
      <trkpt lat="42.75588" lon="1.44095">
        <ele>1610.83</ele>
        <time>2019-01-12T11:39:53Z</time>
      </trkpt>
      <trkpt lat="42.75593" lon="1.44085">
        <ele>1610.83</ele>
        <time>2019-01-12T11:40:07Z</time>
      </trkpt>
      <trkpt lat="42.75576" lon="1.44124">
        <ele>1608.9</ele>
        <time>2019-01-12T11:42:12Z</time>
      </trkpt>
      <trkpt lat="42.75571" lon="1.44136">
        <ele>1608.42</ele>
        <time>2019-01-12T11:42:21Z</time>
      </trkpt>
      <trkpt lat="42.75568" lon="1.44146">
        <ele>1608.9</ele>
        <time>2019-01-12T11:42:30Z</time>
      </trkpt>
      <trkpt lat="42.75564" lon="1.44158">
        <ele>1608.9</ele>
        <time>2019-01-12T11:42:40Z</time>
      </trkpt>
      <trkpt lat="42.75565" lon="1.44157">
        <ele>1605.06</ele>
        <time>2019-01-12T12:35:08Z</time>
      </trkpt>
      <trkpt lat="42.75577" lon="1.44119">
        <ele>1605.54</ele>
        <time>2019-01-12T12:35:42Z</time>
      </trkpt>
      <trkpt lat="42.75579" lon="1.44108">
        <ele>1606.02</ele>
        <time>2019-01-12T12:35:52Z</time>
      </trkpt>
      <trkpt lat="42.75591" lon="1.44087">
        <ele>1606.5</ele>
        <time>2019-01-12T12:36:12Z</time>
      </trkpt>
      <trkpt lat="42.75599" lon="1.44078">
        <ele>1606.5</ele>
        <time>2019-01-12T12:36:22Z</time>
      </trkpt>
      <trkpt lat="42.75604" lon="1.4407">
        <ele>1606.98</ele>
        <time>2019-01-12T12:36:32Z</time>
      </trkpt>
      <trkpt lat="42.75612" lon="1.44061">
        <ele>1606.98</ele>
        <time>2019-01-12T12:36:42Z</time>
      </trkpt>
      <trkpt lat="42.7562" lon="1.44052">
        <ele>1606.98</ele>
        <time>2019-01-12T12:36:53Z</time>
      </trkpt>
      <trkpt lat="42.7562" lon="1.44042">
        <ele>1606.98</ele>
        <time>2019-01-12T12:37:04Z</time>
      </trkpt>
      <trkpt lat="42.75625" lon="1.4403">
        <ele>1606.02</ele>
        <time>2019-01-12T12:37:15Z</time>
      </trkpt>
      <trkpt lat="42.75629" lon="1.44017">
        <ele>1606.02</ele>
        <time>2019-01-12T12:37:37Z</time>
      </trkpt>
      <trkpt lat="42.75636" lon="1.44009">
        <ele>1606.5</ele>
        <time>2019-01-12T12:37:50Z</time>
      </trkpt>
      <trkpt lat="42.75643" lon="1.44001">
        <ele>1606.5</ele>
        <time>2019-01-12T12:38:01Z</time>
      </trkpt>
      <trkpt lat="42.75649" lon="1.4399">
        <ele>1606.98</ele>
        <time>2019-01-12T12:38:12Z</time>
      </trkpt>
      <trkpt lat="42.75657" lon="1.4398">
        <ele>1607.46</ele>
        <time>2019-01-12T12:38:24Z</time>
      </trkpt>
      <trkpt lat="42.75665" lon="1.43973">
        <ele>1606.98</ele>
        <time>2019-01-12T12:38:36Z</time>
      </trkpt>
      <trkpt lat="42.75672" lon="1.43966">
        <ele>1606.02</ele>
        <time>2019-01-12T12:38:48Z</time>
      </trkpt>
      <trkpt lat="42.7568" lon="1.43958">
        <ele>1606.02</ele>
        <time>2019-01-12T12:38:59Z</time>
      </trkpt>
      <trkpt lat="42.75685" lon="1.43947">
        <ele>1606.02</ele>
        <time>2019-01-12T12:39:11Z</time>
      </trkpt>
      <trkpt lat="42.75691" lon="1.43936">
        <ele>1605.54</ele>
        <time>2019-01-12T12:39:22Z</time>
      </trkpt>
      <trkpt lat="42.75695" lon="1.43924">
        <ele>1606.5</ele>
        <time>2019-01-12T12:39:33Z</time>
      </trkpt>
      <trkpt lat="42.75701" lon="1.43912">
        <ele>1606.98</ele>
        <time>2019-01-12T12:39:48Z</time>
      </trkpt>
      <trkpt lat="42.75706" lon="1.43902">
        <ele>1606.5</ele>
        <time>2019-01-12T12:40:00Z</time>
      </trkpt>
      <trkpt lat="42.75713" lon="1.43892">
        <ele>1606.98</ele>
        <time>2019-01-12T12:40:12Z</time>
      </trkpt>
      <trkpt lat="42.75714" lon="1.43882">
        <ele>1608.42</ele>
        <time>2019-01-12T12:40:25Z</time>
      </trkpt>
      <trkpt lat="42.75716" lon="1.43869">
        <ele>1608.9</ele>
        <time>2019-01-12T12:40:37Z</time>
      </trkpt>
      <trkpt lat="42.75722" lon="1.43858">
        <ele>1609.38</ele>
        <time>2019-01-12T12:40:49Z</time>
      </trkpt>
      <trkpt lat="42.75726" lon="1.43844">
        <ele>1610.35</ele>
        <time>2019-01-12T12:41:02Z</time>
      </trkpt>
      <trkpt lat="42.75735" lon="1.43836">
        <ele>1610.35</ele>
        <time>2019-01-12T12:41:15Z</time>
      </trkpt>
      <trkpt lat="42.75744" lon="1.43831">
        <ele>1610.83</ele>
        <time>2019-01-12T12:41:29Z</time>
      </trkpt>
      <trkpt lat="42.75751" lon="1.43824">
        <ele>1610.83</ele>
        <time>2019-01-12T12:41:40Z</time>
      </trkpt>
      <trkpt lat="42.75758" lon="1.43813">
        <ele>1612.27</ele>
        <time>2019-01-12T12:41:54Z</time>
      </trkpt>
      <trkpt lat="42.75763" lon="1.43805">
        <ele>1612.75</ele>
        <time>2019-01-12T12:42:06Z</time>
      </trkpt>
      <trkpt lat="42.7577" lon="1.43797">
        <ele>1612.27</ele>
        <time>2019-01-12T12:42:18Z</time>
      </trkpt>
      <trkpt lat="42.75776" lon="1.43788">
        <ele>1612.27</ele>
        <time>2019-01-12T12:42:30Z</time>
      </trkpt>
      <trkpt lat="42.75784" lon="1.43779">
        <ele>1612.75</ele>
        <time>2019-01-12T12:42:42Z</time>
      </trkpt>
      <trkpt lat="42.75792" lon="1.43771">
        <ele>1612.75</ele>
        <time>2019-01-12T12:42:54Z</time>
      </trkpt>
      <trkpt lat="42.758" lon="1.43764">
        <ele>1613.23</ele>
        <time>2019-01-12T12:43:05Z</time>
      </trkpt>
      <trkpt lat="42.75806" lon="1.43758">
        <ele>1613.71</ele>
        <time>2019-01-12T12:43:19Z</time>
      </trkpt>
      <trkpt lat="42.75809" lon="1.43746">
        <ele>1614.19</ele>
        <time>2019-01-12T12:43:36Z</time>
      </trkpt>
      <trkpt lat="42.75815" lon="1.43733">
        <ele>1615.15</ele>
        <time>2019-01-12T12:43:48Z</time>
      </trkpt>
      <trkpt lat="42.75819" lon="1.43724">
        <ele>1616.59</ele>
        <time>2019-01-12T12:44:01Z</time>
      </trkpt>
      <trkpt lat="42.75823" lon="1.43715">
        <ele>1617.07</ele>
        <time>2019-01-12T12:44:13Z</time>
      </trkpt>
      <trkpt lat="42.7583" lon="1.43707">
        <ele>1616.11</ele>
        <time>2019-01-12T12:44:25Z</time>
      </trkpt>
      <trkpt lat="42.75837" lon="1.43699">
        <ele>1614.67</ele>
        <time>2019-01-12T12:44:37Z</time>
      </trkpt>
      <trkpt lat="42.75846" lon="1.43694">
        <ele>1615.15</ele>
        <time>2019-01-12T12:44:48Z</time>
      </trkpt>
      <trkpt lat="42.75854" lon="1.43689">
        <ele>1616.59</ele>
        <time>2019-01-12T12:45:01Z</time>
      </trkpt>
      <trkpt lat="42.7586" lon="1.4368">
        <ele>1616.11</ele>
        <time>2019-01-12T12:45:13Z</time>
      </trkpt>
      <trkpt lat="42.75868" lon="1.43671">
        <ele>1616.11</ele>
        <time>2019-01-12T12:45:26Z</time>
      </trkpt>
      <trkpt lat="42.75873" lon="1.4366">
        <ele>1615.63</ele>
        <time>2019-01-12T12:45:37Z</time>
      </trkpt>
      <trkpt lat="42.75879" lon="1.43651">
        <ele>1616.11</ele>
        <time>2019-01-12T12:45:49Z</time>
      </trkpt>
      <trkpt lat="42.75883" lon="1.4364">
        <ele>1616.59</ele>
        <time>2019-01-12T12:46:00Z</time>
      </trkpt>
      <trkpt lat="42.75886" lon="1.4363">
        <ele>1617.07</ele>
        <time>2019-01-12T12:46:14Z</time>
      </trkpt>
      <trkpt lat="42.7589" lon="1.43616">
        <ele>1617.07</ele>
        <time>2019-01-12T12:46:27Z</time>
      </trkpt>
      <trkpt lat="42.75891" lon="1.43604">
        <ele>1617.07</ele>
        <time>2019-01-12T12:46:39Z</time>
      </trkpt>
      <trkpt lat="42.75895" lon="1.4359">
        <ele>1617.07</ele>
        <time>2019-01-12T12:46:52Z</time>
      </trkpt>
      <trkpt lat="42.75902" lon="1.43578">
        <ele>1618.04</ele>
        <time>2019-01-12T12:47:05Z</time>
      </trkpt>
      <trkpt lat="42.75906" lon="1.43571">
        <ele>1618.04</ele>
        <time>2019-01-12T12:47:39Z</time>
      </trkpt>
      <trkpt lat="42.75913" lon="1.43564">
        <ele>1618.52</ele>
        <time>2019-01-12T12:47:52Z</time>
      </trkpt>
      <trkpt lat="42.75913" lon="1.43554">
        <ele>1618.52</ele>
        <time>2019-01-12T12:48:06Z</time>
      </trkpt>
      <trkpt lat="42.75919" lon="1.43542">
        <ele>1617.07</ele>
        <time>2019-01-12T12:48:17Z</time>
      </trkpt>
      <trkpt lat="42.75922" lon="1.43531">
        <ele>1617.56</ele>
        <time>2019-01-12T12:48:29Z</time>
      </trkpt>
      <trkpt lat="42.75927" lon="1.43518">
        <ele>1618.04</ele>
        <time>2019-01-12T12:48:41Z</time>
      </trkpt>
      <trkpt lat="42.7593" lon="1.43507">
        <ele>1619</ele>
        <time>2019-01-12T12:48:54Z</time>
      </trkpt>
      <trkpt lat="42.75932" lon="1.43495">
        <ele>1619</ele>
        <time>2019-01-12T12:49:07Z</time>
      </trkpt>
      <trkpt lat="42.75936" lon="1.43484">
        <ele>1620.44</ele>
        <time>2019-01-12T12:49:21Z</time>
      </trkpt>
      <trkpt lat="42.75938" lon="1.43471">
        <ele>1621.4</ele>
        <time>2019-01-12T12:49:34Z</time>
      </trkpt>
      <trkpt lat="42.75941" lon="1.43457">
        <ele>1621.88</ele>
        <time>2019-01-12T12:49:48Z</time>
      </trkpt>
      <trkpt lat="42.75945" lon="1.43445">
        <ele>1623.32</ele>
        <time>2019-01-12T12:50:02Z</time>
      </trkpt>
      <trkpt lat="42.75944" lon="1.43436">
        <ele>1624.77</ele>
        <time>2019-01-12T12:50:52Z</time>
      </trkpt>
      <trkpt lat="42.75957" lon="1.4343">
        <ele>1626.69</ele>
        <time>2019-01-12T12:51:21Z</time>
      </trkpt>
      <trkpt lat="42.75967" lon="1.43433">
        <ele>1629.09</ele>
        <time>2019-01-12T12:51:35Z</time>
      </trkpt>
      <trkpt lat="42.75962" lon="1.43434">
        <ele>1627.17</ele>
        <time>2019-01-12T12:53:53Z</time>
      </trkpt>
      <trkpt lat="42.75955" lon="1.4343">
        <ele>1625.25</ele>
        <time>2019-01-12T12:54:05Z</time>
      </trkpt>
      <trkpt lat="42.7595" lon="1.43433">
        <ele>1624.77</ele>
        <time>2019-01-12T12:55:34Z</time>
      </trkpt>
      <trkpt lat="42.75944" lon="1.43441">
        <ele>1623.8</ele>
        <time>2019-01-12T12:55:56Z</time>
      </trkpt>
      <trkpt lat="42.75939" lon="1.43452">
        <ele>1621.4</ele>
        <time>2019-01-12T12:56:06Z</time>
      </trkpt>
      <trkpt lat="42.75936" lon="1.43464">
        <ele>1620.92</ele>
        <time>2019-01-12T12:56:16Z</time>
      </trkpt>
      <trkpt lat="42.75935" lon="1.43475">
        <ele>1620.44</ele>
        <time>2019-01-12T12:56:31Z</time>
      </trkpt>
      <trkpt lat="42.75933" lon="1.43488">
        <ele>1619</ele>
        <time>2019-01-12T12:56:43Z</time>
      </trkpt>
      <trkpt lat="42.75932" lon="1.435">
        <ele>1618.04</ele>
        <time>2019-01-12T12:56:57Z</time>
      </trkpt>
      <trkpt lat="42.7593" lon="1.43512">
        <ele>1617.07</ele>
        <time>2019-01-12T12:57:10Z</time>
      </trkpt>
      <trkpt lat="42.75926" lon="1.43524">
        <ele>1617.07</ele>
        <time>2019-01-12T12:57:25Z</time>
      </trkpt>
      <trkpt lat="42.75923" lon="1.43536">
        <ele>1617.07</ele>
        <time>2019-01-12T12:57:38Z</time>
      </trkpt>
      <trkpt lat="42.75916" lon="1.43545">
        <ele>1617.07</ele>
        <time>2019-01-12T12:57:51Z</time>
      </trkpt>
      <trkpt lat="42.75915" lon="1.43557">
        <ele>1617.56</ele>
        <time>2019-01-12T12:58:05Z</time>
      </trkpt>
      <trkpt lat="42.75911" lon="1.43568">
        <ele>1617.56</ele>
        <time>2019-01-12T12:58:18Z</time>
      </trkpt>
      <trkpt lat="42.75903" lon="1.43576">
        <ele>1616.59</ele>
        <time>2019-01-12T12:58:32Z</time>
      </trkpt>
      <trkpt lat="42.75897" lon="1.43586">
        <ele>1615.63</ele>
        <time>2019-01-12T12:58:45Z</time>
      </trkpt>
      <trkpt lat="42.75893" lon="1.43596">
        <ele>1615.63</ele>
        <time>2019-01-12T12:58:58Z</time>
      </trkpt>
      <trkpt lat="42.75891" lon="1.43607">
        <ele>1615.63</ele>
        <time>2019-01-12T12:59:10Z</time>
      </trkpt>
      <trkpt lat="42.75889" lon="1.43619">
        <ele>1615.63</ele>
        <time>2019-01-12T12:59:24Z</time>
      </trkpt>
      <trkpt lat="42.75886" lon="1.43631">
        <ele>1615.63</ele>
        <time>2019-01-12T12:59:36Z</time>
      </trkpt>
      <trkpt lat="42.75882" lon="1.43643">
        <ele>1615.63</ele>
        <time>2019-01-12T12:59:49Z</time>
      </trkpt>
      <trkpt lat="42.75876" lon="1.43652">
        <ele>1615.15</ele>
        <time>2019-01-12T13:00:02Z</time>
      </trkpt>
      <trkpt lat="42.75871" lon="1.43663">
        <ele>1614.67</ele>
        <time>2019-01-12T13:00:15Z</time>
      </trkpt>
      <trkpt lat="42.75866" lon="1.43674">
        <ele>1614.19</ele>
        <time>2019-01-12T13:00:28Z</time>
      </trkpt>
      <trkpt lat="42.75859" lon="1.43683">
        <ele>1614.19</ele>
        <time>2019-01-12T13:00:40Z</time>
      </trkpt>
      <trkpt lat="42.75852" lon="1.43691">
        <ele>1614.67</ele>
        <time>2019-01-12T13:00:53Z</time>
      </trkpt>
      <trkpt lat="42.75843" lon="1.43696">
        <ele>1613.71</ele>
        <time>2019-01-12T13:01:06Z</time>
      </trkpt>
      <trkpt lat="42.75835" lon="1.43699">
        <ele>1614.19</ele>
        <time>2019-01-12T13:01:18Z</time>
      </trkpt>
      <trkpt lat="42.75829" lon="1.43706">
        <ele>1615.63</ele>
        <time>2019-01-12T13:01:31Z</time>
      </trkpt>
      <trkpt lat="42.75822" lon="1.43715">
        <ele>1616.11</ele>
        <time>2019-01-12T13:01:43Z</time>
      </trkpt>
      <trkpt lat="42.75818" lon="1.43724">
        <ele>1616.11</ele>
        <time>2019-01-12T13:01:55Z</time>
      </trkpt>
      <trkpt lat="42.75812" lon="1.43731">
        <ele>1614.67</ele>
        <time>2019-01-12T13:02:16Z</time>
      </trkpt>
      <trkpt lat="42.75808" lon="1.43742">
        <ele>1614.19</ele>
        <time>2019-01-12T13:02:25Z</time>
      </trkpt>
      <trkpt lat="42.75806" lon="1.43754">
        <ele>1613.71</ele>
        <time>2019-01-12T13:02:34Z</time>
      </trkpt>
      <trkpt lat="42.75802" lon="1.43765">
        <ele>1612.75</ele>
        <time>2019-01-12T13:02:42Z</time>
      </trkpt>
      <trkpt lat="42.75793" lon="1.43771">
        <ele>1613.71</ele>
        <time>2019-01-12T13:02:52Z</time>
      </trkpt>
      <trkpt lat="42.75785" lon="1.43779">
        <ele>1612.27</ele>
        <time>2019-01-12T13:03:05Z</time>
      </trkpt>
      <trkpt lat="42.75777" lon="1.43786">
        <ele>1612.27</ele>
        <time>2019-01-12T13:03:15Z</time>
      </trkpt>
      <trkpt lat="42.75772" lon="1.43798">
        <ele>1612.27</ele>
        <time>2019-01-12T13:03:25Z</time>
      </trkpt>
      <trkpt lat="42.75764" lon="1.43805">
        <ele>1612.75</ele>
        <time>2019-01-12T13:03:37Z</time>
      </trkpt>
      <trkpt lat="42.75758" lon="1.43814">
        <ele>1612.75</ele>
        <time>2019-01-12T13:03:48Z</time>
      </trkpt>
      <trkpt lat="42.75753" lon="1.43824">
        <ele>1611.31</ele>
        <time>2019-01-12T13:03:59Z</time>
      </trkpt>
      <trkpt lat="42.75747" lon="1.43835">
        <ele>1611.31</ele>
        <time>2019-01-12T13:04:10Z</time>
      </trkpt>
      <trkpt lat="42.75741" lon="1.43836">
        <ele>1611.31</ele>
        <time>2019-01-12T13:04:37Z</time>
      </trkpt>
      <trkpt lat="42.75735" lon="1.43844">
        <ele>1610.35</ele>
        <time>2019-01-12T13:04:54Z</time>
      </trkpt>
      <trkpt lat="42.75727" lon="1.4385">
        <ele>1610.35</ele>
        <time>2019-01-12T13:05:05Z</time>
      </trkpt>
      <trkpt lat="42.75724" lon="1.4386">
        <ele>1610.35</ele>
        <time>2019-01-12T13:05:17Z</time>
      </trkpt>
      <trkpt lat="42.75717" lon="1.43869">
        <ele>1609.86</ele>
        <time>2019-01-12T13:05:28Z</time>
      </trkpt>
      <trkpt lat="42.75716" lon="1.43881">
        <ele>1608.42</ele>
        <time>2019-01-12T13:05:39Z</time>
      </trkpt>
      <trkpt lat="42.75713" lon="1.43894">
        <ele>1607.94</ele>
        <time>2019-01-12T13:05:50Z</time>
      </trkpt>
      <trkpt lat="42.75708" lon="1.43903">
        <ele>1607.46</ele>
        <time>2019-01-12T13:06:03Z</time>
      </trkpt>
      <trkpt lat="42.757" lon="1.43913">
        <ele>1606.98</ele>
        <time>2019-01-12T13:06:16Z</time>
      </trkpt>
      <trkpt lat="42.75695" lon="1.43924">
        <ele>1606.5</ele>
        <time>2019-01-12T13:06:28Z</time>
      </trkpt>
      <trkpt lat="42.75692" lon="1.43936">
        <ele>1605.54</ele>
        <time>2019-01-12T13:06:40Z</time>
      </trkpt>
      <trkpt lat="42.75686" lon="1.43947">
        <ele>1605.54</ele>
        <time>2019-01-12T13:06:53Z</time>
      </trkpt>
      <trkpt lat="42.7568" lon="1.43957">
        <ele>1605.54</ele>
        <time>2019-01-12T13:07:04Z</time>
      </trkpt>
      <trkpt lat="42.75673" lon="1.43965">
        <ele>1606.02</ele>
        <time>2019-01-12T13:07:16Z</time>
      </trkpt>
      <trkpt lat="42.75666" lon="1.43974">
        <ele>1606.02</ele>
        <time>2019-01-12T13:07:28Z</time>
      </trkpt>
      <trkpt lat="42.75659" lon="1.43981">
        <ele>1606.02</ele>
        <time>2019-01-12T13:07:40Z</time>
      </trkpt>
      <trkpt lat="42.75652" lon="1.43989">
        <ele>1606.02</ele>
        <time>2019-01-12T13:07:52Z</time>
      </trkpt>
      <trkpt lat="42.75647" lon="1.43999">
        <ele>1605.06</ele>
        <time>2019-01-12T13:08:04Z</time>
      </trkpt>
      <trkpt lat="42.7564" lon="1.4401">
        <ele>1605.06</ele>
        <time>2019-01-12T13:08:16Z</time>
      </trkpt>
      <trkpt lat="42.75631" lon="1.44018">
        <ele>1604.58</ele>
        <time>2019-01-12T13:08:28Z</time>
      </trkpt>
      <trkpt lat="42.75625" lon="1.44027">
        <ele>1605.06</ele>
        <time>2019-01-12T13:08:42Z</time>
      </trkpt>
      <trkpt lat="42.7562" lon="1.44037">
        <ele>1605.54</ele>
        <time>2019-01-12T13:09:01Z</time>
      </trkpt>
      <trkpt lat="42.75621" lon="1.44048">
        <ele>1605.06</ele>
        <time>2019-01-12T13:09:27Z</time>
      </trkpt>
      <trkpt lat="42.75616" lon="1.44058">
        <ele>1605.06</ele>
        <time>2019-01-12T13:09:38Z</time>
      </trkpt>
      <trkpt lat="42.75608" lon="1.44067">
        <ele>1605.06</ele>
        <time>2019-01-12T13:09:48Z</time>
      </trkpt>
      <trkpt lat="42.75601" lon="1.44075">
        <ele>1605.06</ele>
        <time>2019-01-12T13:09:58Z</time>
      </trkpt>
      <trkpt lat="42.75593" lon="1.44085">
        <ele>1605.06</ele>
        <time>2019-01-12T13:10:08Z</time>
      </trkpt>
      <trkpt lat="42.75589" lon="1.44096">
        <ele>1604.58</ele>
        <time>2019-01-12T13:10:18Z</time>
      </trkpt>
      <trkpt lat="42.75579" lon="1.44117">
        <ele>1604.1</ele>
        <time>2019-01-12T13:10:36Z</time>
      </trkpt>
      <trkpt lat="42.75575" lon="1.44127">
        <ele>1603.62</ele>
        <time>2019-01-12T13:10:45Z</time>
      </trkpt>
      <trkpt lat="42.7557" lon="1.44137">
        <ele>1602.66</ele>
        <time>2019-01-12T13:10:55Z</time>
      </trkpt>
      <trkpt lat="42.75541" lon="1.44255">
        <ele>1602.66</ele>
        <time>2019-01-12T13:12:47Z</time>
      </trkpt>
      <trkpt lat="42.75538" lon="1.44265">
        <ele>1603.14</ele>
        <time>2019-01-12T13:12:59Z</time>
      </trkpt>
      <trkpt lat="42.75532" lon="1.44276">
        <ele>1602.66</ele>
        <time>2019-01-12T13:13:09Z</time>
      </trkpt>
      <trkpt lat="42.75526" lon="1.44286">
        <ele>1602.66</ele>
        <time>2019-01-12T13:13:21Z</time>
      </trkpt>
      <trkpt lat="42.75519" lon="1.44291">
        <ele>1601.69</ele>
        <time>2019-01-12T13:14:16Z</time>
      </trkpt>
      <trkpt lat="42.75515" lon="1.44295">
        <ele>1601.21</ele>
        <time>2019-01-12T13:16:59Z</time>
      </trkpt>
      <trkpt lat="42.75513" lon="1.443">
        <ele>1600.73</ele>
        <time>2019-01-12T13:17:19Z</time>
      </trkpt>
      <trkpt lat="42.7551" lon="1.4431">
        <ele>1600.73</ele>
        <time>2019-01-12T13:17:33Z</time>
      </trkpt>
      <trkpt lat="42.75503" lon="1.44318">
        <ele>1598.81</ele>
        <time>2019-01-12T13:17:45Z</time>
      </trkpt>
      <trkpt lat="42.75496" lon="1.44325">
        <ele>1597.85</ele>
        <time>2019-01-12T13:17:59Z</time>
      </trkpt>
      <trkpt lat="42.75489" lon="1.44335">
        <ele>1596.89</ele>
        <time>2019-01-12T13:18:11Z</time>
      </trkpt>
      <trkpt lat="42.75484" lon="1.44343">
        <ele>1595.93</ele>
        <time>2019-01-12T13:18:24Z</time>
      </trkpt>
      <trkpt lat="42.7548" lon="1.44356">
        <ele>1595.45</ele>
        <time>2019-01-12T13:18:36Z</time>
      </trkpt>
      <trkpt lat="42.75476" lon="1.44367">
        <ele>1594</ele>
        <time>2019-01-12T13:18:49Z</time>
      </trkpt>
      <trkpt lat="42.75472" lon="1.44378">
        <ele>1593.52</ele>
        <time>2019-01-12T13:19:01Z</time>
      </trkpt>
      <trkpt lat="42.75469" lon="1.4439">
        <ele>1592.56</ele>
        <time>2019-01-12T13:19:17Z</time>
      </trkpt>
      <trkpt lat="42.75468" lon="1.44401">
        <ele>1591.12</ele>
        <time>2019-01-12T13:19:29Z</time>
      </trkpt>
      <trkpt lat="42.75465" lon="1.44411">
        <ele>1592.08</ele>
        <time>2019-01-12T13:19:43Z</time>
      </trkpt>
      <trkpt lat="42.75459" lon="1.44423">
        <ele>1591.12</ele>
        <time>2019-01-12T13:19:55Z</time>
      </trkpt>
      <trkpt lat="42.75453" lon="1.44432">
        <ele>1590.64</ele>
        <time>2019-01-12T13:20:07Z</time>
      </trkpt>
      <trkpt lat="42.75449" lon="1.44443">
        <ele>1590.16</ele>
        <time>2019-01-12T13:20:20Z</time>
      </trkpt>
      <trkpt lat="42.75446" lon="1.44454">
        <ele>1590.16</ele>
        <time>2019-01-12T13:20:32Z</time>
      </trkpt>
      <trkpt lat="42.7544" lon="1.44463">
        <ele>1590.16</ele>
        <time>2019-01-12T13:20:43Z</time>
      </trkpt>
      <trkpt lat="42.75434" lon="1.44472">
        <ele>1590.16</ele>
        <time>2019-01-12T13:20:56Z</time>
      </trkpt>
      <trkpt lat="42.75431" lon="1.44483">
        <ele>1589.68</ele>
        <time>2019-01-12T13:21:07Z</time>
      </trkpt>
      <trkpt lat="42.75427" lon="1.44494">
        <ele>1589.68</ele>
        <time>2019-01-12T13:21:19Z</time>
      </trkpt>
      <trkpt lat="42.75424" lon="1.44504">
        <ele>1589.2</ele>
        <time>2019-01-12T13:21:31Z</time>
      </trkpt>
      <trkpt lat="42.75416" lon="1.44509">
        <ele>1588.72</ele>
        <time>2019-01-12T13:21:44Z</time>
      </trkpt>
      <trkpt lat="42.75412" lon="1.44522">
        <ele>1588.24</ele>
        <time>2019-01-12T13:21:56Z</time>
      </trkpt>
      <trkpt lat="42.7541" lon="1.44533">
        <ele>1587.75</ele>
        <time>2019-01-12T13:22:07Z</time>
      </trkpt>
      <trkpt lat="42.75404" lon="1.44543">
        <ele>1587.75</ele>
        <time>2019-01-12T13:22:19Z</time>
      </trkpt>
      <trkpt lat="42.75402" lon="1.44554">
        <ele>1588.24</ele>
        <time>2019-01-12T13:22:31Z</time>
      </trkpt>
      <trkpt lat="42.75401" lon="1.44567">
        <ele>1588.72</ele>
        <time>2019-01-12T13:22:45Z</time>
      </trkpt>
      <trkpt lat="42.75396" lon="1.44578">
        <ele>1590.16</ele>
        <time>2019-01-12T13:23:01Z</time>
      </trkpt>
      <trkpt lat="42.75396" lon="1.44589">
        <ele>1592.56</ele>
        <time>2019-01-12T13:23:17Z</time>
      </trkpt>
      <trkpt lat="42.75392" lon="1.446">
        <ele>1595.45</ele>
        <time>2019-01-12T13:23:35Z</time>
      </trkpt>
      <trkpt lat="42.7539" lon="1.44612">
        <ele>1596.89</ele>
        <time>2019-01-12T13:23:54Z</time>
      </trkpt>
      <trkpt lat="42.75389" lon="1.44622">
        <ele>1598.33</ele>
        <time>2019-01-12T13:24:12Z</time>
      </trkpt>
      <trkpt lat="42.75387" lon="1.44632">
        <ele>1598.81</ele>
        <time>2019-01-12T13:24:27Z</time>
      </trkpt>
      <trkpt lat="42.75383" lon="1.44644">
        <ele>1598.33</ele>
        <time>2019-01-12T13:24:43Z</time>
      </trkpt>
      <trkpt lat="42.7538" lon="1.44656">
        <ele>1598.81</ele>
        <time>2019-01-12T13:24:55Z</time>
      </trkpt>
      <trkpt lat="42.75378" lon="1.44668">
        <ele>1597.85</ele>
        <time>2019-01-12T13:25:08Z</time>
      </trkpt>
      <trkpt lat="42.75378" lon="1.44679">
        <ele>1596.89</ele>
        <time>2019-01-12T13:25:21Z</time>
      </trkpt>
      <trkpt lat="42.75376" lon="1.4469">
        <ele>1595.93</ele>
        <time>2019-01-12T13:25:36Z</time>
      </trkpt>
      <trkpt lat="42.75374" lon="1.44693">
        <ele>1595.93</ele>
        <time>2019-01-12T13:29:21Z</time>
      </trkpt>
      <trkpt lat="42.75375" lon="1.44694">
        <ele>1597.85</ele>
        <time>2019-01-12T13:38:00Z</time>
      </trkpt>
      <trkpt lat="42.75371" lon="1.44703">
        <ele>1595.45</ele>
        <time>2019-01-12T13:38:22Z</time>
      </trkpt>
      <trkpt lat="42.75367" lon="1.44716">
        <ele>1593.04</ele>
        <time>2019-01-12T13:38:32Z</time>
      </trkpt>
      <trkpt lat="42.75363" lon="1.44728">
        <ele>1590.16</ele>
        <time>2019-01-12T13:38:41Z</time>
      </trkpt>
      <trkpt lat="42.75359" lon="1.44739">
        <ele>1588.24</ele>
        <time>2019-01-12T13:38:54Z</time>
      </trkpt>
      <trkpt lat="42.75355" lon="1.4475">
        <ele>1585.83</ele>
        <time>2019-01-12T13:39:06Z</time>
      </trkpt>
      <trkpt lat="42.75351" lon="1.44762">
        <ele>1583.91</ele>
        <time>2019-01-12T13:39:20Z</time>
      </trkpt>
      <trkpt lat="42.75349" lon="1.44774">
        <ele>1581.51</ele>
        <time>2019-01-12T13:39:33Z</time>
      </trkpt>
      <trkpt lat="42.75344" lon="1.4478">
        <ele>1579.1</ele>
        <time>2019-01-12T13:39:54Z</time>
      </trkpt>
      <trkpt lat="42.75338" lon="1.44771">
        <ele>1577.18</ele>
        <time>2019-01-12T13:40:07Z</time>
      </trkpt>
      <trkpt lat="42.75339" lon="1.44772">
        <ele>1573.82</ele>
        <time>2019-01-12T13:40:22Z</time>
      </trkpt>
      <trkpt lat="42.75336" lon="1.4478">
        <ele>1573.33</ele>
        <time>2019-01-12T13:40:38Z</time>
      </trkpt>
      <trkpt lat="42.7533" lon="1.44776">
        <ele>1570.93</ele>
        <time>2019-01-12T13:40:49Z</time>
      </trkpt>
      <trkpt lat="42.75323" lon="1.44766">
        <ele>1568.53</ele>
        <time>2019-01-12T13:41:07Z</time>
      </trkpt>
      <trkpt lat="42.75322" lon="1.44751">
        <ele>1566.61</ele>
        <time>2019-01-12T13:41:20Z</time>
      </trkpt>
      <trkpt lat="42.75323" lon="1.44737">
        <ele>1564.2</ele>
        <time>2019-01-12T13:41:35Z</time>
      </trkpt>
      <trkpt lat="42.75324" lon="1.44726">
        <ele>1563.24</ele>
        <time>2019-01-12T13:41:47Z</time>
      </trkpt>
      <trkpt lat="42.75317" lon="1.44716">
        <ele>1562.76</ele>
        <time>2019-01-12T13:42:13Z</time>
      </trkpt>
      <trkpt lat="42.75315" lon="1.44722">
        <ele>1559.4</ele>
        <time>2019-01-12T13:42:30Z</time>
      </trkpt>
      <trkpt lat="42.7531" lon="1.44724">
        <ele>1557.47</ele>
        <time>2019-01-12T13:42:49Z</time>
      </trkpt>
      <trkpt lat="42.75309" lon="1.44728">
        <ele>1555.55</ele>
        <time>2019-01-12T13:44:19Z</time>
      </trkpt>
      <trkpt lat="42.75309" lon="1.44739">
        <ele>1553.15</ele>
        <time>2019-01-12T13:44:34Z</time>
      </trkpt>
      <trkpt lat="42.75307" lon="1.44752">
        <ele>1550.74</ele>
        <time>2019-01-12T13:44:49Z</time>
      </trkpt>
      <trkpt lat="42.75307" lon="1.44761">
        <ele>1546.42</ele>
        <time>2019-01-12T13:45:07Z</time>
      </trkpt>
      <trkpt lat="42.75304" lon="1.44767">
        <ele>1544.5</ele>
        <time>2019-01-12T13:45:22Z</time>
      </trkpt>
      <trkpt lat="42.75303" lon="1.44774">
        <ele>1543.05</ele>
        <time>2019-01-12T13:45:39Z</time>
      </trkpt>
      <trkpt lat="42.75301" lon="1.44789">
        <ele>1541.61</ele>
        <time>2019-01-12T13:45:49Z</time>
      </trkpt>
      <trkpt lat="42.75297" lon="1.44801">
        <ele>1540.17</ele>
        <time>2019-01-12T13:45:58Z</time>
      </trkpt>
      <trkpt lat="42.75293" lon="1.44814">
        <ele>1538.73</ele>
        <time>2019-01-12T13:46:06Z</time>
      </trkpt>
      <trkpt lat="42.7529" lon="1.44828">
        <ele>1537.77</ele>
        <time>2019-01-12T13:46:16Z</time>
      </trkpt>
      <trkpt lat="42.75286" lon="1.4484">
        <ele>1535.84</ele>
        <time>2019-01-12T13:46:30Z</time>
      </trkpt>
      <trkpt lat="42.75282" lon="1.44853">
        <ele>1535.84</ele>
        <time>2019-01-12T13:48:23Z</time>
      </trkpt>
      <trkpt lat="42.75278" lon="1.44865">
        <ele>1535.36</ele>
        <time>2019-01-12T13:48:36Z</time>
      </trkpt>
      <trkpt lat="42.75275" lon="1.44878">
        <ele>1535.36</ele>
        <time>2019-01-12T13:48:48Z</time>
      </trkpt>
      <trkpt lat="42.75269" lon="1.44892">
        <ele>1534.4</ele>
        <time>2019-01-12T13:49:01Z</time>
      </trkpt>
      <trkpt lat="42.75262" lon="1.44903">
        <ele>1533.44</ele>
        <time>2019-01-12T13:49:16Z</time>
      </trkpt>
      <trkpt lat="42.75256" lon="1.44918">
        <ele>1532.48</ele>
        <time>2019-01-12T13:49:28Z</time>
      </trkpt>
      <trkpt lat="42.75248" lon="1.4493">
        <ele>1530.08</ele>
        <time>2019-01-12T13:49:44Z</time>
      </trkpt>
      <trkpt lat="42.75243" lon="1.44943">
        <ele>1528.15</ele>
        <time>2019-01-12T13:49:56Z</time>
      </trkpt>
      <trkpt lat="42.75235" lon="1.44956">
        <ele>1526.23</ele>
        <time>2019-01-12T13:50:12Z</time>
      </trkpt>
      <trkpt lat="42.75227" lon="1.44967">
        <ele>1522.87</ele>
        <time>2019-01-12T13:50:27Z</time>
      </trkpt>
      <trkpt lat="42.7522" lon="1.44979">
        <ele>1519.98</ele>
        <time>2019-01-12T13:50:39Z</time>
      </trkpt>
      <trkpt lat="42.75213" lon="1.44991">
        <ele>1517.58</ele>
        <time>2019-01-12T13:50:52Z</time>
      </trkpt>
      <trkpt lat="42.75207" lon="1.45">
        <ele>1515.18</ele>
        <time>2019-01-12T13:51:07Z</time>
      </trkpt>
      <trkpt lat="42.75201" lon="1.45014">
        <ele>1513.25</ele>
        <time>2019-01-12T13:51:21Z</time>
      </trkpt>
      <trkpt lat="42.75194" lon="1.45022">
        <ele>1511.33</ele>
        <time>2019-01-12T13:51:43Z</time>
      </trkpt>
      <trkpt lat="42.75183" lon="1.45011">
        <ele>1507.48</ele>
        <time>2019-01-12T13:52:14Z</time>
      </trkpt>
      <trkpt lat="42.75177" lon="1.45001">
        <ele>1503.16</ele>
        <time>2019-01-12T13:52:58Z</time>
      </trkpt>
      <trkpt lat="42.75169" lon="1.45013">
        <ele>1499.31</ele>
        <time>2019-01-12T13:53:13Z</time>
      </trkpt>
      <trkpt lat="42.7516" lon="1.4502">
        <ele>1495.47</ele>
        <time>2019-01-12T13:53:30Z</time>
      </trkpt>
      <trkpt lat="42.7515" lon="1.45024">
        <ele>1494.03</ele>
        <time>2019-01-12T13:54:04Z</time>
      </trkpt>
      <trkpt lat="42.75141" lon="1.4503">
        <ele>1493.06</ele>
        <time>2019-01-12T13:54:18Z</time>
      </trkpt>
      <trkpt lat="42.75132" lon="1.4504">
        <ele>1491.62</ele>
        <time>2019-01-12T13:54:53Z</time>
      </trkpt>
      <trkpt lat="42.75123" lon="1.45051">
        <ele>1488.74</ele>
        <time>2019-01-12T13:55:31Z</time>
      </trkpt>
      <trkpt lat="42.7513" lon="1.45086">
        <ele>1484.89</ele>
        <time>2019-01-12T13:56:03Z</time>
      </trkpt>
      <trkpt lat="42.75124" lon="1.45097">
        <ele>1482.49</ele>
        <time>2019-01-12T13:56:18Z</time>
      </trkpt>
      <trkpt lat="42.75119" lon="1.4509">
        <ele>1480.09</ele>
        <time>2019-01-12T13:56:34Z</time>
      </trkpt>
      <trkpt lat="42.75117" lon="1.45097">
        <ele>1477.2</ele>
        <time>2019-01-12T13:56:51Z</time>
      </trkpt>
      <trkpt lat="42.75114" lon="1.45109">
        <ele>1476.24</ele>
        <time>2019-01-12T13:57:04Z</time>
      </trkpt>
      <trkpt lat="42.7511" lon="1.45101">
        <ele>1474.32</ele>
        <time>2019-01-12T13:57:21Z</time>
      </trkpt>
      <trkpt lat="42.75109" lon="1.45094">
        <ele>1471.44</ele>
        <time>2019-01-12T13:57:35Z</time>
      </trkpt>
      <trkpt lat="42.75105" lon="1.45099">
        <ele>1468.07</ele>
        <time>2019-01-12T13:58:00Z</time>
      </trkpt>
      <trkpt lat="42.75099" lon="1.45109">
        <ele>1465.67</ele>
        <time>2019-01-12T13:58:16Z</time>
      </trkpt>
      <trkpt lat="42.7509" lon="1.45119">
        <ele>1462.78</ele>
        <time>2019-01-12T13:58:36Z</time>
      </trkpt>
      <trkpt lat="42.75086" lon="1.45133">
        <ele>1459.9</ele>
        <time>2019-01-12T13:58:49Z</time>
      </trkpt>
      <trkpt lat="42.75081" lon="1.45144">
        <ele>1456.53</ele>
        <time>2019-01-12T13:59:07Z</time>
      </trkpt>
      <trkpt lat="42.7507" lon="1.45143">
        <ele>1454.61</ele>
        <time>2019-01-12T14:00:55Z</time>
      </trkpt>
      <trkpt lat="42.75072" lon="1.45141">
        <ele>1452.21</ele>
        <time>2019-01-12T14:01:24Z</time>
      </trkpt>
      <trkpt lat="42.75069" lon="1.45152">
        <ele>1449.32</ele>
        <time>2019-01-12T14:01:37Z</time>
      </trkpt>
      <trkpt lat="42.75064" lon="1.4515">
        <ele>1446.92</ele>
        <time>2019-01-12T14:01:52Z</time>
      </trkpt>
      <trkpt lat="42.75061" lon="1.45136">
        <ele>1443.08</ele>
        <time>2019-01-12T14:02:06Z</time>
      </trkpt>
      <trkpt lat="42.75065" lon="1.45119">
        <ele>1439.71</ele>
        <time>2019-01-12T14:02:22Z</time>
      </trkpt>
      <trkpt lat="42.75061" lon="1.45107">
        <ele>1435.87</ele>
        <time>2019-01-12T14:02:41Z</time>
      </trkpt>
      <trkpt lat="42.75057" lon="1.45099">
        <ele>1432.5</ele>
        <time>2019-01-12T14:02:56Z</time>
      </trkpt>
      <trkpt lat="42.75054" lon="1.45096">
        <ele>1430.1</ele>
        <time>2019-01-12T14:03:12Z</time>
      </trkpt>
      <trkpt lat="42.75047" lon="1.45108">
        <ele>1427.7</ele>
        <time>2019-01-12T14:03:28Z</time>
      </trkpt>
      <trkpt lat="42.75039" lon="1.45121">
        <ele>1423.85</ele>
        <time>2019-01-12T14:03:45Z</time>
      </trkpt>
      <trkpt lat="42.75031" lon="1.45133">
        <ele>1421.45</ele>
        <time>2019-01-12T14:04:01Z</time>
      </trkpt>
      <trkpt lat="42.75032" lon="1.45123">
        <ele>1418.56</ele>
        <time>2019-01-12T14:04:20Z</time>
      </trkpt>
      <trkpt lat="42.75026" lon="1.45112">
        <ele>1414.24</ele>
        <time>2019-01-12T14:04:37Z</time>
      </trkpt>
      <trkpt lat="42.75019" lon="1.45117">
        <ele>1410.39</ele>
        <time>2019-01-12T14:04:55Z</time>
      </trkpt>
      <trkpt lat="42.75012" lon="1.45128">
        <ele>1406.55</ele>
        <time>2019-01-12T14:05:15Z</time>
      </trkpt>
      <trkpt lat="42.75005" lon="1.45126">
        <ele>1403.18</ele>
        <time>2019-01-12T14:05:34Z</time>
      </trkpt>
      <trkpt lat="42.74995" lon="1.45134">
        <ele>1398.37</ele>
        <time>2019-01-12T14:05:56Z</time>
      </trkpt>
      <trkpt lat="42.74987" lon="1.4513">
        <ele>1394.53</ele>
        <time>2019-01-12T14:06:16Z</time>
      </trkpt>
      <trkpt lat="42.74978" lon="1.45133">
        <ele>1390.68</ele>
        <time>2019-01-12T14:06:39Z</time>
      </trkpt>
      <trkpt lat="42.74977" lon="1.45119">
        <ele>1387.8</ele>
        <time>2019-01-12T14:06:56Z</time>
      </trkpt>
      <trkpt lat="42.74977" lon="1.45107">
        <ele>1385.88</ele>
        <time>2019-01-12T14:08:01Z</time>
      </trkpt>
      <trkpt lat="42.74975" lon="1.45115">
        <ele>1383.47</ele>
        <time>2019-01-12T14:08:41Z</time>
      </trkpt>
      <trkpt lat="42.74968" lon="1.45118">
        <ele>1379.15</ele>
        <time>2019-01-12T14:09:04Z</time>
      </trkpt>
      <trkpt lat="42.74961" lon="1.45119">
        <ele>1376.75</ele>
        <time>2019-01-12T14:09:24Z</time>
      </trkpt>
      <trkpt lat="42.74956" lon="1.45124">
        <ele>1373.38</ele>
        <time>2019-01-12T14:09:46Z</time>
      </trkpt>
      <trkpt lat="42.74946" lon="1.45131">
        <ele>1370.02</ele>
        <time>2019-01-12T14:10:06Z</time>
      </trkpt>
      <trkpt lat="42.74944" lon="1.45141">
        <ele>1367.13</ele>
        <time>2019-01-12T14:10:21Z</time>
      </trkpt>
      <trkpt lat="42.74944" lon="1.45155">
        <ele>1364.73</ele>
        <time>2019-01-12T14:10:35Z</time>
      </trkpt>
      <trkpt lat="42.74946" lon="1.45169">
        <ele>1363.29</ele>
        <time>2019-01-12T14:10:47Z</time>
      </trkpt>
      <trkpt lat="42.7494" lon="1.4518">
        <ele>1361.36</ele>
        <time>2019-01-12T14:11:03Z</time>
      </trkpt>
      <trkpt lat="42.74935" lon="1.4519">
        <ele>1358.96</ele>
        <time>2019-01-12T14:11:18Z</time>
      </trkpt>
      <trkpt lat="42.74927" lon="1.45203">
        <ele>1354.15</ele>
        <time>2019-01-12T14:11:43Z</time>
      </trkpt>
      <trkpt lat="42.74918" lon="1.4521">
        <ele>1350.31</ele>
        <time>2019-01-12T14:12:08Z</time>
      </trkpt>
      <trkpt lat="42.74908" lon="1.45204">
        <ele>1346.94</ele>
        <time>2019-01-12T14:12:26Z</time>
      </trkpt>
      <trkpt lat="42.74903" lon="1.45202">
        <ele>1344.54</ele>
        <time>2019-01-12T14:12:43Z</time>
      </trkpt>
      <trkpt lat="42.74901" lon="1.45212">
        <ele>1341.66</ele>
        <time>2019-01-12T14:13:03Z</time>
      </trkpt>
      <trkpt lat="42.74901" lon="1.45226">
        <ele>1338.29</ele>
        <time>2019-01-12T14:13:21Z</time>
      </trkpt>
      <trkpt lat="42.749" lon="1.45243">
        <ele>1335.41</ele>
        <time>2019-01-12T14:13:50Z</time>
      </trkpt>
      <trkpt lat="42.749" lon="1.45256">
        <ele>1331.56</ele>
        <time>2019-01-12T14:15:25Z</time>
      </trkpt>
      <trkpt lat="42.74893" lon="1.45267">
        <ele>1327.72</ele>
        <time>2019-01-12T14:15:46Z</time>
      </trkpt>
      <trkpt lat="42.74882" lon="1.45266">
        <ele>1323.87</ele>
        <time>2019-01-12T14:16:07Z</time>
      </trkpt>
      <trkpt lat="42.74877" lon="1.45273">
        <ele>1321.47</ele>
        <time>2019-01-12T14:16:31Z</time>
      </trkpt>
      <trkpt lat="42.74876" lon="1.45286">
        <ele>1319.55</ele>
        <time>2019-01-12T14:16:47Z</time>
      </trkpt>
      <trkpt lat="42.74871" lon="1.45296">
        <ele>1317.62</ele>
        <time>2019-01-12T14:18:56Z</time>
      </trkpt>
      <trkpt lat="42.74864" lon="1.4531">
        <ele>1313.3</ele>
        <time>2019-01-12T14:19:25Z</time>
      </trkpt>
      <trkpt lat="42.74852" lon="1.45315">
        <ele>1309.45</ele>
        <time>2019-01-12T14:19:52Z</time>
      </trkpt>
      <trkpt lat="42.74844" lon="1.45307">
        <ele>1306.57</ele>
        <time>2019-01-12T14:20:15Z</time>
      </trkpt>
      <trkpt lat="42.74834" lon="1.45299">
        <ele>1304.65</ele>
        <time>2019-01-12T14:20:33Z</time>
      </trkpt>
      <trkpt lat="42.74827" lon="1.45291">
        <ele>1301.76</ele>
        <time>2019-01-12T14:20:55Z</time>
      </trkpt>
      <trkpt lat="42.7482" lon="1.4529">
        <ele>1297.92</ele>
        <time>2019-01-12T14:21:17Z</time>
      </trkpt>
      <trkpt lat="42.74819" lon="1.45278">
        <ele>1294.55</ele>
        <time>2019-01-12T14:21:48Z</time>
      </trkpt>
      <trkpt lat="42.74813" lon="1.45275">
        <ele>1291.67</ele>
        <time>2019-01-12T14:22:08Z</time>
      </trkpt>
      <trkpt lat="42.74811" lon="1.45264">
        <ele>1290.23</ele>
        <time>2019-01-12T14:22:28Z</time>
      </trkpt>
      <trkpt lat="42.74808" lon="1.45274">
        <ele>1285.9</ele>
        <time>2019-01-12T14:22:52Z</time>
      </trkpt>
      <trkpt lat="42.74808" lon="1.45289">
        <ele>1283.5</ele>
        <time>2019-01-12T14:23:08Z</time>
      </trkpt>
      <trkpt lat="42.74807" lon="1.45305">
        <ele>1282.06</ele>
        <time>2019-01-12T14:23:26Z</time>
      </trkpt>
      <trkpt lat="42.74805" lon="1.45319">
        <ele>1279.65</ele>
        <time>2019-01-12T14:23:44Z</time>
      </trkpt>
      <trkpt lat="42.74805" lon="1.45333">
        <ele>1278.21</ele>
        <time>2019-01-12T14:24:04Z</time>
      </trkpt>
      <trkpt lat="42.74807" lon="1.45347">
        <ele>1275.33</ele>
        <time>2019-01-12T14:24:21Z</time>
      </trkpt>
      <trkpt lat="42.74808" lon="1.45358">
        <ele>1271.96</ele>
        <time>2019-01-12T14:24:38Z</time>
      </trkpt>
      <trkpt lat="42.74809" lon="1.45373">
        <ele>1267.64</ele>
        <time>2019-01-12T14:24:58Z</time>
      </trkpt>
      <trkpt lat="42.7481" lon="1.4539">
        <ele>1264.27</ele>
        <time>2019-01-12T14:25:31Z</time>
      </trkpt>
      <trkpt lat="42.74804" lon="1.45396">
        <ele>1259.46</ele>
        <time>2019-01-12T14:25:53Z</time>
      </trkpt>
      <trkpt lat="42.74798" lon="1.45395">
        <ele>1255.62</ele>
        <time>2019-01-12T14:26:21Z</time>
      </trkpt>
      <trkpt lat="42.74789" lon="1.45401">
        <ele>1251.29</ele>
        <time>2019-01-12T14:26:44Z</time>
      </trkpt>
      <trkpt lat="42.74782" lon="1.4541">
        <ele>1247.93</ele>
        <time>2019-01-12T14:27:10Z</time>
      </trkpt>
      <trkpt lat="42.7477" lon="1.45411">
        <ele>1243.6</ele>
        <time>2019-01-12T14:27:36Z</time>
      </trkpt>
      <trkpt lat="42.74767" lon="1.45422">
        <ele>1240.24</ele>
        <time>2019-01-12T14:28:02Z</time>
      </trkpt>
      <trkpt lat="42.74756" lon="1.45417">
        <ele>1237.35</ele>
        <time>2019-01-12T14:28:20Z</time>
      </trkpt>
      <trkpt lat="42.74755" lon="1.45423">
        <ele>1233.51</ele>
        <time>2019-01-12T14:28:38Z</time>
      </trkpt>
      <trkpt lat="42.74741" lon="1.45422">
        <ele>1231.59</ele>
        <time>2019-01-12T14:28:58Z</time>
      </trkpt>
      <trkpt lat="42.7473" lon="1.45408">
        <ele>1228.7</ele>
        <time>2019-01-12T14:32:10Z</time>
      </trkpt>
      <trkpt lat="42.74738" lon="1.45429">
        <ele>1227.26</ele>
        <time>2019-01-12T14:34:34Z</time>
      </trkpt>
      <trkpt lat="42.74735" lon="1.45442">
        <ele>1224.38</ele>
        <time>2019-01-12T14:35:00Z</time>
      </trkpt>
      <trkpt lat="42.74734" lon="1.45454">
        <ele>1221.97</ele>
        <time>2019-01-12T14:35:19Z</time>
      </trkpt>
      <trkpt lat="42.74733" lon="1.45467">
        <ele>1219.57</ele>
        <time>2019-01-12T14:35:37Z</time>
      </trkpt>
      <trkpt lat="42.74735" lon="1.4548">
        <ele>1215.72</ele>
        <time>2019-01-12T14:35:59Z</time>
      </trkpt>
      <trkpt lat="42.74726" lon="1.45485">
        <ele>1211.88</ele>
        <time>2019-01-12T14:36:32Z</time>
      </trkpt>
      <trkpt lat="42.74717" lon="1.45485">
        <ele>1208.03</ele>
        <time>2019-01-12T14:36:55Z</time>
      </trkpt>
      <trkpt lat="42.74716" lon="1.45492">
        <ele>1205.15</ele>
        <time>2019-01-12T14:37:15Z</time>
      </trkpt>
      <trkpt lat="42.74708" lon="1.45507">
        <ele>1202.27</ele>
        <time>2019-01-12T14:39:00Z</time>
      </trkpt>
      <trkpt lat="42.74699" lon="1.45511">
        <ele>1198.42</ele>
        <time>2019-01-12T14:39:23Z</time>
      </trkpt>
      <trkpt lat="42.74696" lon="1.45519">
        <ele>1196.98</ele>
        <time>2019-01-12T14:39:38Z</time>
      </trkpt>
      <trkpt lat="42.74691" lon="1.45522">
        <ele>1193.61</ele>
        <time>2019-01-12T14:39:57Z</time>
      </trkpt>
      <trkpt lat="42.74694" lon="1.45532">
        <ele>1191.69</ele>
        <time>2019-01-12T14:40:12Z</time>
      </trkpt>
      <trkpt lat="42.74694" lon="1.45545">
        <ele>1188.33</ele>
        <time>2019-01-12T14:40:39Z</time>
      </trkpt>
      <trkpt lat="42.74684" lon="1.4555">
        <ele>1184</ele>
        <time>2019-01-12T14:41:06Z</time>
      </trkpt>
      <trkpt lat="42.74676" lon="1.45556">
        <ele>1181.12</ele>
        <time>2019-01-12T14:41:28Z</time>
      </trkpt>
      <trkpt lat="42.7467" lon="1.45561">
        <ele>1178.23</ele>
        <time>2019-01-12T14:41:52Z</time>
      </trkpt>
      <trkpt lat="42.74663" lon="1.45562">
        <ele>1175.35</ele>
        <time>2019-01-12T14:42:12Z</time>
      </trkpt>
      <trkpt lat="42.74665" lon="1.45574">
        <ele>1173.43</ele>
        <time>2019-01-12T14:42:28Z</time>
      </trkpt>
      <trkpt lat="42.7466" lon="1.45581">
        <ele>1171.5</ele>
        <time>2019-01-12T14:42:44Z</time>
      </trkpt>
      <trkpt lat="42.7465" lon="1.45583">
        <ele>1169.1</ele>
        <time>2019-01-12T14:43:02Z</time>
      </trkpt>
      <trkpt lat="42.74644" lon="1.45579">
        <ele>1166.7</ele>
        <time>2019-01-12T14:43:21Z</time>
      </trkpt>
      <trkpt lat="42.74645" lon="1.4559">
        <ele>1163.81</ele>
        <time>2019-01-12T14:43:44Z</time>
      </trkpt>
      <trkpt lat="42.7464" lon="1.45595">
        <ele>1160.93</ele>
        <time>2019-01-12T14:44:06Z</time>
      </trkpt>
      <trkpt lat="42.74643" lon="1.45602">
        <ele>1159.49</ele>
        <time>2019-01-12T14:44:17Z</time>
      </trkpt>
      <trkpt lat="42.74649" lon="1.45609">
        <ele>1158.53</ele>
        <time>2019-01-12T14:44:47Z</time>
      </trkpt>
      <trkpt lat="42.74656" lon="1.45617">
        <ele>1157.08</ele>
        <time>2019-01-12T14:44:59Z</time>
      </trkpt>
      <trkpt lat="42.74661" lon="1.45628">
        <ele>1156.12</ele>
        <time>2019-01-12T14:45:11Z</time>
      </trkpt>
      <trkpt lat="42.74663" lon="1.4564">
        <ele>1154.68</ele>
        <time>2019-01-12T14:45:23Z</time>
      </trkpt>
      <trkpt lat="42.74661" lon="1.45654">
        <ele>1152.76</ele>
        <time>2019-01-12T14:45:34Z</time>
      </trkpt>
      <trkpt lat="42.74656" lon="1.45643">
        <ele>1152.28</ele>
        <time>2019-01-12T14:45:45Z</time>
      </trkpt>
      <trkpt lat="42.74651" lon="1.45631">
        <ele>1151.32</ele>
        <time>2019-01-12T14:45:54Z</time>
      </trkpt>
      <trkpt lat="42.74646" lon="1.45622">
        <ele>1149.39</ele>
        <time>2019-01-12T14:46:05Z</time>
      </trkpt>
      <trkpt lat="42.74639" lon="1.45614">
        <ele>1148.43</ele>
        <time>2019-01-12T14:46:16Z</time>
      </trkpt>
      <trkpt lat="42.74631" lon="1.45606">
        <ele>1146.99</ele>
        <time>2019-01-12T14:46:27Z</time>
      </trkpt>
      <trkpt lat="42.74623" lon="1.45599">
        <ele>1146.03</ele>
        <time>2019-01-12T14:46:36Z</time>
      </trkpt>
      <trkpt lat="42.74614" lon="1.45592">
        <ele>1143.63</ele>
        <time>2019-01-12T14:46:46Z</time>
      </trkpt>
      <trkpt lat="42.74605" lon="1.45589">
        <ele>1142.18</ele>
        <time>2019-01-12T14:46:56Z</time>
      </trkpt>
      <trkpt lat="42.74593" lon="1.45585">
        <ele>1139.78</ele>
        <time>2019-01-12T14:47:06Z</time>
      </trkpt>
      <trkpt lat="42.74585" lon="1.45577">
        <ele>1139.3</ele>
        <time>2019-01-12T14:47:15Z</time>
      </trkpt>
      <trkpt lat="42.74581" lon="1.45565">
        <ele>1138.82</ele>
        <time>2019-01-12T14:47:25Z</time>
      </trkpt>
      <trkpt lat="42.74582" lon="1.4555">
        <ele>1137.86</ele>
        <time>2019-01-12T14:47:35Z</time>
      </trkpt>
      <trkpt lat="42.74581" lon="1.45534">
        <ele>1136.9</ele>
        <time>2019-01-12T14:47:45Z</time>
      </trkpt>
      <trkpt lat="42.74577" lon="1.45521">
        <ele>1135.94</ele>
        <time>2019-01-12T14:47:54Z</time>
      </trkpt>
      <trkpt lat="42.7457" lon="1.45514">
        <ele>1135.94</ele>
        <time>2019-01-12T14:48:03Z</time>
      </trkpt>
      <trkpt lat="42.74562" lon="1.45512">
        <ele>1135.45</ele>
        <time>2019-01-12T14:48:12Z</time>
      </trkpt>
      <trkpt lat="42.74554" lon="1.45518">
        <ele>1134.01</ele>
        <time>2019-01-12T14:48:21Z</time>
      </trkpt>
      <trkpt lat="42.74547" lon="1.45526">
        <ele>1132.09</ele>
        <time>2019-01-12T14:48:31Z</time>
      </trkpt>
      <trkpt lat="42.7454" lon="1.45532">
        <ele>1130.17</ele>
        <time>2019-01-12T14:48:41Z</time>
      </trkpt>
      <trkpt lat="42.74532" lon="1.45537">
        <ele>1128.24</ele>
        <time>2019-01-12T14:48:51Z</time>
      </trkpt>
      <trkpt lat="42.74524" lon="1.45539">
        <ele>1126.32</ele>
        <time>2019-01-12T14:48:59Z</time>
      </trkpt>
      <trkpt lat="42.74515" lon="1.45542">
        <ele>1124.88</ele>
        <time>2019-01-12T14:49:08Z</time>
      </trkpt>
      <trkpt lat="42.74506" lon="1.45548">
        <ele>1123.44</ele>
        <time>2019-01-12T14:49:17Z</time>
      </trkpt>
      <trkpt lat="42.74496" lon="1.45554">
        <ele>1122.48</ele>
        <time>2019-01-12T14:49:26Z</time>
      </trkpt>
      <trkpt lat="42.74487" lon="1.4556">
        <ele>1122</ele>
        <time>2019-01-12T14:49:35Z</time>
      </trkpt>
      <trkpt lat="42.74477" lon="1.45566">
        <ele>1121.03</ele>
        <time>2019-01-12T14:49:44Z</time>
      </trkpt>
      <trkpt lat="42.74468" lon="1.45571">
        <ele>1120.07</ele>
        <time>2019-01-12T14:49:54Z</time>
      </trkpt>
      <trkpt lat="42.74457" lon="1.45573">
        <ele>1118.63</ele>
        <time>2019-01-12T14:50:04Z</time>
      </trkpt>
      <trkpt lat="42.74446" lon="1.45572">
        <ele>1118.63</ele>
        <time>2019-01-12T14:50:13Z</time>
      </trkpt>
      <trkpt lat="42.74436" lon="1.45571">
        <ele>1118.15</ele>
        <time>2019-01-12T14:50:21Z</time>
      </trkpt>
      <trkpt lat="42.74427" lon="1.45577">
        <ele>1118.15</ele>
        <time>2019-01-12T14:50:30Z</time>
      </trkpt>
      <trkpt lat="42.74418" lon="1.45584">
        <ele>1117.67</ele>
        <time>2019-01-12T14:50:39Z</time>
      </trkpt>
      <trkpt lat="42.74409" lon="1.45591">
        <ele>1117.19</ele>
        <time>2019-01-12T14:50:47Z</time>
      </trkpt>
      <trkpt lat="42.74401" lon="1.456">
        <ele>1116.71</ele>
        <time>2019-01-12T14:50:56Z</time>
      </trkpt>
      <trkpt lat="42.74393" lon="1.45606">
        <ele>1116.23</ele>
        <time>2019-01-12T14:51:05Z</time>
      </trkpt>
      <trkpt lat="42.74384" lon="1.45612">
        <ele>1115.27</ele>
        <time>2019-01-12T14:51:14Z</time>
      </trkpt>
      <trkpt lat="42.74375" lon="1.45617">
        <ele>1114.31</ele>
        <time>2019-01-12T14:51:23Z</time>
      </trkpt>
      <trkpt lat="42.74367" lon="1.45621">
        <ele>1114.31</ele>
        <time>2019-01-12T14:51:32Z</time>
      </trkpt>
      <trkpt lat="42.7436" lon="1.4563">
        <ele>1113.82</ele>
        <time>2019-01-12T14:51:41Z</time>
      </trkpt>
      <trkpt lat="42.74352" lon="1.45637">
        <ele>1112.38</ele>
        <time>2019-01-12T14:51:51Z</time>
      </trkpt>
      <trkpt lat="42.74343" lon="1.45643">
        <ele>1110.94</ele>
        <time>2019-01-12T14:52:00Z</time>
      </trkpt>
      <trkpt lat="42.74333" lon="1.45652">
        <ele>1109.98</ele>
        <time>2019-01-12T14:52:09Z</time>
      </trkpt>
      <trkpt lat="42.74325" lon="1.4566">
        <ele>1108.06</ele>
        <time>2019-01-12T14:52:21Z</time>
      </trkpt>
      <trkpt lat="42.74317" lon="1.45668">
        <ele>1107.1</ele>
        <time>2019-01-12T14:52:31Z</time>
      </trkpt>
      <trkpt lat="42.74305" lon="1.45679">
        <ele>1105.65</ele>
        <time>2019-01-12T14:52:40Z</time>
      </trkpt>
      <trkpt lat="42.74298" lon="1.45689">
        <ele>1104.21</ele>
        <time>2019-01-12T14:52:49Z</time>
      </trkpt>
      <trkpt lat="42.74295" lon="1.45702">
        <ele>1103.25</ele>
        <time>2019-01-12T14:52:58Z</time>
      </trkpt>
      <trkpt lat="42.74292" lon="1.45713">
        <ele>1101.81</ele>
        <time>2019-01-12T14:53:07Z</time>
      </trkpt>
      <trkpt lat="42.74287" lon="1.45724">
        <ele>1100.37</ele>
        <time>2019-01-12T14:53:16Z</time>
      </trkpt>
      <trkpt lat="42.7428" lon="1.4573">
        <ele>1098.44</ele>
        <time>2019-01-12T14:53:25Z</time>
      </trkpt>
      <trkpt lat="42.7427" lon="1.45733">
        <ele>1096.52</ele>
        <time>2019-01-12T14:53:35Z</time>
      </trkpt>
      <trkpt lat="42.7426" lon="1.45735">
        <ele>1095.08</ele>
        <time>2019-01-12T14:53:45Z</time>
      </trkpt>
      <trkpt lat="42.7425" lon="1.45738">
        <ele>1092.68</ele>
        <time>2019-01-12T14:53:55Z</time>
      </trkpt>
      <trkpt lat="42.74241" lon="1.45743">
        <ele>1090.75</ele>
        <time>2019-01-12T14:54:05Z</time>
      </trkpt>
      <trkpt lat="42.7423" lon="1.45745">
        <ele>1089.79</ele>
        <time>2019-01-12T14:54:14Z</time>
      </trkpt>
      <trkpt lat="42.7422" lon="1.45748">
        <ele>1087.87</ele>
        <time>2019-01-12T14:54:23Z</time>
      </trkpt>
      <trkpt lat="42.74209" lon="1.45749">
        <ele>1085.95</ele>
        <time>2019-01-12T14:54:33Z</time>
      </trkpt>
      <trkpt lat="42.74199" lon="1.45751">
        <ele>1084.5</ele>
        <time>2019-01-12T14:54:42Z</time>
      </trkpt>
      <trkpt lat="42.74189" lon="1.45749">
        <ele>1083.06</ele>
        <time>2019-01-12T14:54:53Z</time>
      </trkpt>
      <trkpt lat="42.74177" lon="1.45742">
        <ele>1080.66</ele>
        <time>2019-01-12T14:55:04Z</time>
      </trkpt>
      <trkpt lat="42.74169" lon="1.45736">
        <ele>1080.18</ele>
        <time>2019-01-12T14:55:14Z</time>
      </trkpt>
      <trkpt lat="42.74159" lon="1.45728">
        <ele>1078.26</ele>
        <time>2019-01-12T14:55:25Z</time>
      </trkpt>
      <trkpt lat="42.74148" lon="1.45721">
        <ele>1077.29</ele>
        <time>2019-01-12T14:55:36Z</time>
      </trkpt>
      <trkpt lat="42.74141" lon="1.45714">
        <ele>1075.85</ele>
        <time>2019-01-12T14:55:48Z</time>
      </trkpt>
      <trkpt lat="42.74132" lon="1.45707">
        <ele>1073.93</ele>
        <time>2019-01-12T14:56:00Z</time>
      </trkpt>
      <trkpt lat="42.7412" lon="1.45702">
        <ele>1072.49</ele>
        <time>2019-01-12T14:56:12Z</time>
      </trkpt>
      <trkpt lat="42.74109" lon="1.45697">
        <ele>1071.05</ele>
        <time>2019-01-12T14:56:21Z</time>
      </trkpt>
      <trkpt lat="42.74097" lon="1.45689">
        <ele>1070.08</ele>
        <time>2019-01-12T14:56:30Z</time>
      </trkpt>
      <trkpt lat="42.74086" lon="1.45678">
        <ele>1068.64</ele>
        <time>2019-01-12T14:56:40Z</time>
      </trkpt>
      <trkpt lat="42.74076" lon="1.45667">
        <ele>1067.2</ele>
        <time>2019-01-12T14:56:50Z</time>
      </trkpt>
      <trkpt lat="42.74067" lon="1.45655">
        <ele>1065.76</ele>
        <time>2019-01-12T14:56:59Z</time>
      </trkpt>
      <trkpt lat="42.7406" lon="1.45644">
        <ele>1064.8</ele>
        <time>2019-01-12T14:57:09Z</time>
      </trkpt>
      <trkpt lat="42.74053" lon="1.45632">
        <ele>1062.39</ele>
        <time>2019-01-12T14:57:21Z</time>
      </trkpt>
      <trkpt lat="42.74043" lon="1.45628">
        <ele>1061.43</ele>
        <time>2019-01-12T14:57:31Z</time>
      </trkpt>
      <trkpt lat="42.74034" lon="1.4563">
        <ele>1059.99</ele>
        <time>2019-01-12T14:57:41Z</time>
      </trkpt>
      <trkpt lat="42.74022" lon="1.45627">
        <ele>1059.03</ele>
        <time>2019-01-12T14:58:47Z</time>
      </trkpt>
      <trkpt lat="42.74024" lon="1.4564">
        <ele>1054.7</ele>
        <time>2019-01-12T14:59:10Z</time>
      </trkpt>
      <trkpt lat="42.74014" lon="1.45634">
        <ele>1051.34</ele>
        <time>2019-01-12T14:59:30Z</time>
      </trkpt>
      <trkpt lat="42.74003" lon="1.4562">
        <ele>1047.49</ele>
        <time>2019-01-12T14:59:57Z</time>
      </trkpt>
      <trkpt lat="42.74002" lon="1.45631">
        <ele>1043.17</ele>
        <time>2019-01-12T15:00:20Z</time>
      </trkpt>
      <trkpt lat="42.74003" lon="1.45644">
        <ele>1039.32</ele>
        <time>2019-01-12T15:00:44Z</time>
      </trkpt>
      <trkpt lat="42.73991" lon="1.45637">
        <ele>1034.52</ele>
        <time>2019-01-12T15:01:09Z</time>
      </trkpt>
      <trkpt lat="42.73982" lon="1.45646">
        <ele>1030.67</ele>
        <time>2019-01-12T15:02:03Z</time>
      </trkpt>
      <trkpt lat="42.73985" lon="1.45663">
        <ele>1027.31</ele>
        <time>2019-01-12T15:02:21Z</time>
      </trkpt>
      <trkpt lat="42.73994" lon="1.45672">
        <ele>1024.9</ele>
        <time>2019-01-12T15:02:38Z</time>
      </trkpt>
      <trkpt lat="42.74004" lon="1.45683">
        <ele>1022.02</ele>
        <time>2019-01-12T15:02:56Z</time>
      </trkpt>
      <trkpt lat="42.74015" lon="1.45694">
        <ele>1018.65</ele>
        <time>2019-01-12T15:03:13Z</time>
      </trkpt>
      <trkpt lat="42.74011" lon="1.45702">
        <ele>1015.77</ele>
        <time>2019-01-12T15:03:34Z</time>
      </trkpt>
      <trkpt lat="42.74002" lon="1.4571">
        <ele>1013.85</ele>
        <time>2019-01-12T15:03:49Z</time>
      </trkpt>
      <trkpt lat="42.73988" lon="1.45709">
        <ele>1010.48</ele>
        <time>2019-01-12T15:04:13Z</time>
      </trkpt>
      <trkpt lat="42.73973" lon="1.45701">
        <ele>1006.16</ele>
        <time>2019-01-12T15:04:37Z</time>
      </trkpt>
      <trkpt lat="42.73962" lon="1.45698">
        <ele>1002.79</ele>
        <time>2019-01-12T15:04:59Z</time>
      </trkpt>
      <trkpt lat="42.73946" lon="1.45695">
        <ele>999.43</ele>
        <time>2019-01-12T15:05:21Z</time>
      </trkpt>
      <trkpt lat="42.73948" lon="1.45705">
        <ele>998.47</ele>
        <time>2019-01-12T15:05:35Z</time>
      </trkpt>
      <trkpt lat="42.73957" lon="1.45715">
        <ele>996.06</ele>
        <time>2019-01-12T15:05:53Z</time>
      </trkpt>
      <trkpt lat="42.73965" lon="1.4573">
        <ele>993.66</ele>
        <time>2019-01-12T15:06:10Z</time>
      </trkpt>
      <trkpt lat="42.73956" lon="1.4573">
        <ele>991.26</ele>
        <time>2019-01-12T15:06:24Z</time>
      </trkpt>
      <trkpt lat="42.73945" lon="1.45732">
        <ele>989.33</ele>
        <time>2019-01-12T15:06:41Z</time>
      </trkpt>
      <trkpt lat="42.73934" lon="1.45733">
        <ele>987.41</ele>
        <time>2019-01-12T15:06:55Z</time>
      </trkpt>
      <trkpt lat="42.73926" lon="1.45739">
        <ele>985.01</ele>
        <time>2019-01-12T15:07:18Z</time>
      </trkpt>
      <trkpt lat="42.73914" lon="1.45744">
        <ele>981.64</ele>
        <time>2019-01-12T15:07:41Z</time>
      </trkpt>
      <trkpt lat="42.73905" lon="1.45735">
        <ele>976.84</ele>
        <time>2019-01-12T15:08:14Z</time>
      </trkpt>
      <trkpt lat="42.739" lon="1.4574">
        <ele>972.51</ele>
        <time>2019-01-12T15:08:47Z</time>
      </trkpt>
      <trkpt lat="42.73891" lon="1.45744">
        <ele>967.22</ele>
        <time>2019-01-12T15:09:32Z</time>
      </trkpt>
      <trkpt lat="42.73881" lon="1.4575">
        <ele>962.42</ele>
        <time>2019-01-12T15:10:01Z</time>
      </trkpt>
      <trkpt lat="42.73868" lon="1.45758">
        <ele>958.57</ele>
        <time>2019-01-12T15:10:34Z</time>
      </trkpt>
      <trkpt lat="42.73864" lon="1.45772">
        <ele>955.21</ele>
        <time>2019-01-12T15:11:01Z</time>
      </trkpt>
      <trkpt lat="42.73854" lon="1.4578">
        <ele>952.8</ele>
        <time>2019-01-12T15:11:32Z</time>
      </trkpt>
      <trkpt lat="42.73845" lon="1.45786">
        <ele>948.96</ele>
        <time>2019-01-12T15:12:24Z</time>
      </trkpt>
      <trkpt lat="42.73839" lon="1.45797">
        <ele>947.04</ele>
        <time>2019-01-12T15:12:41Z</time>
      </trkpt>
      <trkpt lat="42.73834" lon="1.45812">
        <ele>944.15</ele>
        <time>2019-01-12T15:13:01Z</time>
      </trkpt>
      <trkpt lat="42.73829" lon="1.45829">
        <ele>942.23</ele>
        <time>2019-01-12T15:13:20Z</time>
      </trkpt>
      <trkpt lat="42.73847" lon="1.45845">
        <ele>938.86</ele>
        <time>2019-01-12T15:13:41Z</time>
      </trkpt>
      <trkpt lat="42.73859" lon="1.45865">
        <ele>935.02</ele>
        <time>2019-01-12T15:14:11Z</time>
      </trkpt>
      <trkpt lat="42.73865" lon="1.45881">
        <ele>931.17</ele>
        <time>2019-01-12T15:14:34Z</time>
      </trkpt>
      <trkpt lat="42.73874" lon="1.45902">
        <ele>925.89</ele>
        <time>2019-01-12T15:15:01Z</time>
      </trkpt>
      <trkpt lat="42.7388" lon="1.45919">
        <ele>921.56</ele>
        <time>2019-01-12T15:15:21Z</time>
      </trkpt>
      <trkpt lat="42.73886" lon="1.4593">
        <ele>917.72</ele>
        <time>2019-01-12T15:15:40Z</time>
      </trkpt>
      <trkpt lat="42.73899" lon="1.45943">
        <ele>912.43</ele>
        <time>2019-01-12T15:16:19Z</time>
      </trkpt>
      <trkpt lat="42.73913" lon="1.45952">
        <ele>908.58</ele>
        <time>2019-01-12T15:16:40Z</time>
      </trkpt>
      <trkpt lat="42.73934" lon="1.4596">
        <ele>905.22</ele>
        <time>2019-01-12T15:17:01Z</time>
      </trkpt>
      <trkpt lat="42.73951" lon="1.45968">
        <ele>902.33</ele>
        <time>2019-01-12T15:17:20Z</time>
      </trkpt>
      <trkpt lat="42.73969" lon="1.45967">
        <ele>900.41</ele>
        <time>2019-01-12T15:17:36Z</time>
      </trkpt>
      <trkpt lat="42.73982" lon="1.45975">
        <ele>900.89</ele>
        <time>2019-01-12T15:17:52Z</time>
      </trkpt>
      <trkpt lat="42.73996" lon="1.45992">
        <ele>898.01</ele>
        <time>2019-01-12T15:18:15Z</time>
      </trkpt>
      <trkpt lat="42.74009" lon="1.46007">
        <ele>892.72</ele>
        <time>2019-01-12T15:18:43Z</time>
      </trkpt>
      <trkpt lat="42.7402" lon="1.46023">
        <ele>888.4</ele>
        <time>2019-01-12T15:19:06Z</time>
      </trkpt>
      <trkpt lat="42.74037" lon="1.46035">
        <ele>884.07</ele>
        <time>2019-01-12T15:19:33Z</time>
      </trkpt>
      <trkpt lat="42.74049" lon="1.46048">
        <ele>879.74</ele>
        <time>2019-01-12T15:20:00Z</time>
      </trkpt>
      <trkpt lat="42.74066" lon="1.46063">
        <ele>873.98</ele>
        <time>2019-01-12T15:20:31Z</time>
      </trkpt>
      <trkpt lat="42.74086" lon="1.46076">
        <ele>871.57</ele>
        <time>2019-01-12T15:20:53Z</time>
      </trkpt>
      <trkpt lat="42.74099" lon="1.46088">
        <ele>872.05</ele>
        <time>2019-01-12T15:21:05Z</time>
      </trkpt>
      <trkpt lat="42.74112" lon="1.46101">
        <ele>871.09</ele>
        <time>2019-01-12T15:21:17Z</time>
      </trkpt>
      <trkpt lat="42.74124" lon="1.4611">
        <ele>872.05</ele>
        <time>2019-01-12T15:21:30Z</time>
      </trkpt>
      <trkpt lat="42.74133" lon="1.4612">
        <ele>873.5</ele>
        <time>2019-01-12T15:21:43Z</time>
      </trkpt>
      <trkpt lat="42.74143" lon="1.46128">
        <ele>873.98</ele>
        <time>2019-01-12T15:21:55Z</time>
      </trkpt>
      <trkpt lat="42.74153" lon="1.46152">
        <ele>874.46</ele>
        <time>2019-01-12T15:22:12Z</time>
      </trkpt>
      <trkpt lat="42.74156" lon="1.46162">
        <ele>873.5</ele>
        <time>2019-01-12T15:22:28Z</time>
      </trkpt>
      <trkpt lat="42.74164" lon="1.46167">
        <ele>870.61</ele>
        <time>2019-01-12T15:22:55Z</time>
      </trkpt>
      <trkpt lat="42.74175" lon="1.46168">
        <ele>866.29</ele>
        <time>2019-01-12T15:23:20Z</time>
      </trkpt>
      <trkpt lat="42.74186" lon="1.46168">
        <ele>863.88</ele>
        <time>2019-01-12T15:23:36Z</time>
      </trkpt>
      <trkpt lat="42.74199" lon="1.46171">
        <ele>860.04</ele>
        <time>2019-01-12T15:23:51Z</time>
      </trkpt>
      <trkpt lat="42.74213" lon="1.46183">
        <ele>857.63</ele>
        <time>2019-01-12T15:24:08Z</time>
      </trkpt>
      <trkpt lat="42.74225" lon="1.46198">
        <ele>855.23</ele>
        <time>2019-01-12T15:24:28Z</time>
      </trkpt>
      <trkpt lat="42.7424" lon="1.46204">
        <ele>852.35</ele>
        <time>2019-01-12T15:24:48Z</time>
      </trkpt>
      <trkpt lat="42.74261" lon="1.46209">
        <ele>848.98</ele>
        <time>2019-01-12T15:25:18Z</time>
      </trkpt>
      <trkpt lat="42.74278" lon="1.46213">
        <ele>846.58</ele>
        <time>2019-01-12T15:25:42Z</time>
      </trkpt>
      <trkpt lat="42.74294" lon="1.4622">
        <ele>842.73</ele>
        <time>2019-01-12T15:26:06Z</time>
      </trkpt>
      <trkpt lat="42.74288" lon="1.4623">
        <ele>841.29</ele>
        <time>2019-01-12T15:26:15Z</time>
      </trkpt>
      <trkpt lat="42.7428" lon="1.46237">
        <ele>841.77</ele>
        <time>2019-01-12T15:26:25Z</time>
      </trkpt>
      <trkpt lat="42.74272" lon="1.46248">
        <ele>843.69</ele>
        <time>2019-01-12T15:26:43Z</time>
      </trkpt>
      <trkpt lat="42.74276" lon="1.46257">
        <ele>844.66</ele>
        <time>2019-01-12T15:26:58Z</time>
      </trkpt>
      <trkpt lat="42.74284" lon="1.46269">
        <ele>848.5</ele>
        <time>2019-01-12T15:27:20Z</time>
      </trkpt>
      <trkpt lat="42.74292" lon="1.46289">
        <ele>848.5</ele>
        <time>2019-01-12T15:27:32Z</time>
      </trkpt>
      <trkpt lat="42.74296" lon="1.46301">
        <ele>848.5</ele>
        <time>2019-01-12T15:27:42Z</time>
      </trkpt>
      <trkpt lat="42.743" lon="1.46313">
        <ele>848.98</ele>
        <time>2019-01-12T15:27:51Z</time>
      </trkpt>
      <trkpt lat="42.74308" lon="1.46323">
        <ele>849.46</ele>
        <time>2019-01-12T15:28:00Z</time>
      </trkpt>
      <trkpt lat="42.74314" lon="1.46334">
        <ele>850.42</ele>
        <time>2019-01-12T15:28:10Z</time>
      </trkpt>
      <trkpt lat="42.7432" lon="1.46347">
        <ele>850.9</ele>
        <time>2019-01-12T15:28:21Z</time>
      </trkpt>
      <trkpt lat="42.74317" lon="1.46361">
        <ele>851.38</ele>
        <time>2019-01-12T15:28:30Z</time>
      </trkpt>
      <trkpt lat="42.74315" lon="1.46374">
        <ele>851.87</ele>
        <time>2019-01-12T15:28:39Z</time>
      </trkpt>
    </trkseg>
  </trk>
</gpx>